PWSweather.com
Personal Weather Stations
Station Observations
KGAROSWE1
Roswell (historic Mill Village), Roswell, GA 30075

Roswell (historic Mill Village)Roswell, GA 30075

Lat: 34.014545, Lon: -84.358498

Elevation: 1025

Station Type: Davis Vantage Vue

http://www.roswellweather.net

Latest ConditionsUpdated 10:52:06 PM EDT Monday, Apr 23, 2018
Currently Today's Max Today's Min Today's Average
Temperature 58.2°F14.6°C 61.1°F16.2°C 55.8°F13.2°C 57.8°F14.3°C
Dew Point 57.6°F14.2°C 60.5°F15.8°C 55.5°F13.1°C 57.4°F14.1°C
Winds 2.0 mph NNE3.2 kmh NNE 13.0 mph E20.9 kmh E - 2.1 mph 3.4 kmh
Wind Gusts 6.0 mph9.7 kmh 23.0 mph37.0 kmh - -
Humidity 98% 99% 96% 98%
Pressure 29.87 in1011.5 mb 30.03 in1016.9 mb 29.86 in1011.2 mb -
Hour Temp Dew Point Humidity Winds Wind Gusts Pressure Precip Precip Rate Daily Precip Total
10:52 PM 58.2°F14.6°C 57.6°F14.2°C 98% 2.0 mph NNE3.2 kmh NNE 6.0 mph9.7 kmh 29.87 in1011.5 mb 0.04 in1.0 mm 0.00 in0.0 mm 1.43 in36.3 mm
10:50 PM 58.2°F14.6°C 57.6°F14.2°C 98% Calm Calm 4.0 mph6.4 kmh 29.87 in1011.5 mb 0.04 in1.0 mm 0.00 in0.0 mm 1.43 in36.3 mm
10:48 PM 58.2°F14.6°C 57.6°F14.2°C 98% Calm Calm 2.0 mph3.2 kmh 29.87 in1011.5 mb 0.04 in1.0 mm 0.00 in0.0 mm 1.43 in36.3 mm
10:46 PM 58.2°F14.6°C 57.6°F14.2°C 98% 1.0 mph E1.6 kmh E 7.0 mph11.3 kmh 29.87 in1011.5 mb 0.04 in1.0 mm 0.00 in0.0 mm 1.43 in36.3 mm
10:44 PM 58.2°F14.6°C 57.6°F14.2°C 98% 4.0 mph E6.4 kmh E 4.0 mph6.4 kmh 29.87 in1011.5 mb 0.04 in1.0 mm 0.00 in0.0 mm 1.43 in36.3 mm
10:42 PM 58.2°F14.6°C 57.4°F14.1°C 97% Calm Calm 5.0 mph8.0 kmh 29.87 in1011.5 mb 0.05 in1.3 mm 0.00 in0.0 mm 1.43 in36.3 mm
10:40 PM 58.2°F14.6°C 57.4°F14.1°C 97% 1.0 mph ESE1.6 kmh ESE 5.0 mph8.0 kmh 29.87 in1011.5 mb 0.05 in1.3 mm 0.00 in0.0 mm 1.43 in36.3 mm
10:38 PM 58.2°F14.6°C 57.4°F14.1°C 97% 1.0 mph ENE1.6 kmh ENE 5.0 mph8.0 kmh 29.87 in1011.5 mb 0.05 in1.3 mm 0.00 in0.0 mm 1.43 in36.3 mm
10:36 PM 58.3°F14.6°C 57.5°F14.2°C 97% Calm Calm 7.0 mph11.3 kmh 29.87 in1011.5 mb 0.06 in1.5 mm 0.00 in0.0 mm 1.43 in36.3 mm
10:34 PM 58.3°F14.6°C 57.5°F14.2°C 97% 2.0 mph NE3.2 kmh NE 7.0 mph11.3 kmh 29.87 in1011.5 mb 0.06 in1.5 mm 0.00 in0.0 mm 1.43 in36.3 mm
10:32 PM 58.3°F14.6°C 57.5°F14.2°C 97% 1.0 mph E1.6 kmh E 6.0 mph9.7 kmh 29.87 in1011.5 mb 0.07 in1.8 mm 0.00 in0.0 mm 1.43 in36.3 mm
10:30 PM 58.3°F14.6°C 57.5°F14.2°C 97% Calm Calm 3.0 mph4.8 kmh 29.87 in1011.5 mb 0.07 in1.8 mm 0.00 in0.0 mm 1.43 in36.3 mm
10:28 PM 58.3°F14.6°C 57.5°F14.2°C 97% 1.0 mph E1.6 kmh E 1.0 mph1.6 kmh 29.87 in1011.5 mb 0.07 in1.8 mm 0.00 in0.0 mm 1.43 in36.3 mm
10:26 PM 58.3°F14.6°C 57.5°F14.2°C 97% 3.0 mph ESE4.8 kmh ESE 5.0 mph8.0 kmh 29.87 in1011.5 mb 0.07 in1.8 mm 0.00 in0.0 mm 1.43 in36.3 mm
10:24 PM 58.3°F14.6°C 57.5°F14.2°C 97% 1.0 mph ESE1.6 kmh ESE 4.0 mph6.4 kmh 29.87 in1011.5 mb 0.07 in1.8 mm 0.00 in0.0 mm 1.43 in36.3 mm
10:22 PM 58.3°F14.6°C 57.5°F14.2°C 97% 2.0 mph SE3.2 kmh SE 8.0 mph12.9 kmh 29.87 in1011.5 mb 0.07 in1.8 mm 0.00 in0.0 mm 1.43 in36.3 mm
10:20 PM 58.3°F14.6°C 57.5°F14.2°C 97% 4.0 mph SE6.4 kmh SE 8.0 mph12.9 kmh 29.88 in1011.9 mb 0.07 in1.8 mm 0.00 in0.0 mm 1.43 in36.3 mm
10:18 PM 58.4°F14.7°C 57.6°F14.2°C 97% 1.0 mph SE1.6 kmh SE 8.0 mph12.9 kmh 29.87 in1011.5 mb 0.07 in1.8 mm 0.00 in0.0 mm 1.43 in36.3 mm
10:16 PM 58.4°F14.7°C 57.6°F14.2°C 97% Calm Calm 5.0 mph8.0 kmh 29.88 in1011.9 mb 0.07 in1.8 mm 0.00 in0.0 mm 1.43 in36.3 mm
10:14 PM 58.4°F14.7°C 57.6°F14.2°C 97% 2.0 mph NNE3.2 kmh NNE 5.0 mph8.0 kmh 29.88 in1011.9 mb 0.07 in1.8 mm 0.00 in0.0 mm 1.43 in36.3 mm
10:12 PM 58.4°F14.7°C 57.6°F14.2°C 97% 3.0 mph N4.8 kmh N 8.0 mph12.9 kmh 29.88 in1011.9 mb 0.07 in1.8 mm 0.00 in0.0 mm 1.43 in36.3 mm
10:10 PM 58.4°F14.7°C 57.6°F14.2°C 97% 4.0 mph ESE6.4 kmh ESE 8.0 mph12.9 kmh 29.88 in1011.9 mb 0.07 in1.8 mm 0.00 in0.0 mm 1.43 in36.3 mm
10:08 PM 58.5°F14.7°C 57.7°F14.3°C 97% 3.0 mph ESE4.8 kmh ESE 6.0 mph9.7 kmh 29.88 in1011.9 mb 0.07 in1.8 mm 0.00 in0.0 mm 1.43 in36.3 mm
10:06 PM 58.5°F14.7°C 57.7°F14.3°C 97% 5.0 mph E8.0 kmh E 5.0 mph8.0 kmh 29.88 in1011.9 mb 0.07 in1.8 mm 0.30 in7.6 mm 1.43 in36.3 mm
10:04 PM 58.5°F14.7°C 57.7°F14.3°C 97% Calm Calm 3.0 mph4.8 kmh 29.88 in1011.9 mb 0.06 in1.5 mm 0.00 in0.0 mm 1.42 in36.1 mm
10:02 PM 58.5°F14.7°C 57.7°F14.3°C 97% Calm Calm 8.0 mph12.9 kmh 29.88 in1011.9 mb 0.06 in1.5 mm 0.00 in0.0 mm 1.42 in36.1 mm
10:00 PM 58.5°F14.7°C 57.7°F14.3°C 97% 2.0 mph NE3.2 kmh NE 8.0 mph12.9 kmh 29.88 in1011.9 mb 0.06 in1.5 mm 0.00 in0.0 mm 1.42 in36.1 mm
09:58 PM 58.6°F14.8°C 57.8°F14.3°C 97% 4.0 mph ESE6.4 kmh ESE 7.0 mph11.3 kmh 29.87 in1011.5 mb 0.06 in1.5 mm 0.30 in7.6 mm 1.42 in36.1 mm
09:56 PM 58.6°F14.8°C 57.8°F14.3°C 97% 2.0 mph NE3.2 kmh NE 8.0 mph12.9 kmh 29.88 in1011.9 mb 0.05 in1.3 mm 0.00 in0.0 mm 1.41 in35.8 mm
09:54 PM 58.6°F14.8°C 57.8°F14.3°C 97% 3.0 mph NNE4.8 kmh NNE 6.0 mph9.7 kmh 29.88 in1011.9 mb 0.05 in1.3 mm 0.60 in15.2 mm 1.41 in35.8 mm
09:52 PM 58.7°F14.8°C 57.9°F14.4°C 97% 3.0 mph ENE4.8 kmh ENE 6.0 mph9.7 kmh 29.88 in1011.9 mb 0.03 in0.8 mm 0.00 in0.0 mm 1.39 in35.3 mm
09:50 PM 58.7°F14.8°C 57.9°F14.4°C 97% 1.0 mph ENE1.6 kmh ENE 6.0 mph9.7 kmh 29.89 in1012.2 mb 0.03 in0.8 mm 0.00 in0.0 mm 1.39 in35.3 mm
09:48 PM 58.7°F14.8°C 57.9°F14.4°C 97% 3.0 mph ESE4.8 kmh ESE 6.0 mph9.7 kmh 29.88 in1011.9 mb 0.03 in0.8 mm 0.00 in0.0 mm 1.39 in35.3 mm
09:46 PM 58.7°F14.8°C 57.9°F14.4°C 97% 3.0 mph E4.8 kmh E 13.0 mph20.9 kmh 29.88 in1011.9 mb 0.03 in0.8 mm 0.00 in0.0 mm 1.39 in35.3 mm
09:44 PM 58.7°F14.8°C 57.9°F14.4°C 97% 3.0 mph E4.8 kmh E 7.0 mph11.3 kmh 29.87 in1011.5 mb 0.03 in0.8 mm 0.00 in0.0 mm 1.39 in35.3 mm
09:42 PM 58.7°F14.8°C 57.9°F14.4°C 97% 1.0 mph E1.6 kmh E 9.0 mph14.5 kmh 29.87 in1011.5 mb 0.03 in0.8 mm 0.00 in0.0 mm 1.39 in35.3 mm
09:40 PM 58.8°F14.9°C 57.7°F14.3°C 96% 2.0 mph ENE3.2 kmh ENE 9.0 mph14.5 kmh 29.86 in1011.2 mb 0.03 in0.8 mm 0.00 in0.0 mm 1.39 in35.3 mm
09:38 PM 58.8°F14.9°C 57.7°F14.3°C 96% Calm Calm 1.0 mph1.6 kmh 29.86 in1011.2 mb 0.03 in0.8 mm 0.30 in7.6 mm 1.39 in35.3 mm
09:36 PM 58.8°F14.9°C 57.7°F14.3°C 96% 2.0 mph NNW3.2 kmh NNW 8.0 mph12.9 kmh 29.86 in1011.2 mb 0.02 in0.5 mm 0.00 in0.0 mm 1.38 in35.1 mm
09:34 PM 58.8°F14.9°C 57.7°F14.3°C 96% 2.0 mph NE3.2 kmh NE 6.0 mph9.7 kmh 29.87 in1011.5 mb 0.02 in0.5 mm 0.30 in7.6 mm 1.38 in35.1 mm
09:32 PM 58.9°F14.9°C 57.8°F14.3°C 96% 1.0 mph SE1.6 kmh SE 6.0 mph9.7 kmh 29.87 in1011.5 mb 0.01 in0.3 mm 0.30 in7.6 mm 1.37 in34.8 mm
09:30 PM 58.9°F14.9°C 57.8°F14.3°C 96% 1.0 mph ENE1.6 kmh ENE 6.0 mph9.7 kmh 29.87 in1011.5 mb 0.00 in0.0 mm 0.00 in0.0 mm 1.36 in34.5 mm
09:28 PM 58.9°F14.9°C 57.8°F14.3°C 96% Calm Calm 5.0 mph8.0 kmh 29.87 in1011.5 mb 0.00 in0.0 mm 0.00 in0.0 mm 1.36 in34.5 mm
09:26 PM 58.9°F14.9°C 58.1°F14.5°C 97% 5.0 mph E8.0 kmh E 11.0 mph17.7 kmh 29.87 in1011.5 mb 0.00 in0.0 mm 0.00 in0.0 mm 1.36 in34.5 mm
09:24 PM 58.9°F14.9°C 58.1°F14.5°C 97% 11.0 mph ESE17.7 kmh ESE 11.0 mph17.7 kmh 29.86 in1011.2 mb 0.00 in0.0 mm 0.00 in0.0 mm 1.36 in34.5 mm
09:22 PM 58.9°F14.9°C 58.1°F14.5°C 97% 2.0 mph SE3.2 kmh SE 12.0 mph19.3 kmh 29.86 in1011.2 mb 0.00 in0.0 mm 0.00 in0.0 mm 1.36 in34.5 mm
09:20 PM 58.8°F14.9°C 58.0°F14.4°C 97% 6.0 mph ENE9.7 kmh ENE 12.0 mph19.3 kmh 29.86 in1011.2 mb 0.00 in0.0 mm 0.00 in0.0 mm 1.36 in34.5 mm
09:18 PM 58.9°F14.9°C 58.1°F14.5°C 97% 3.0 mph N4.8 kmh N 3.0 mph4.8 kmh 29.86 in1011.2 mb 0.00 in0.0 mm 0.00 in0.0 mm 1.36 in34.5 mm
09:16 PM 58.9°F14.9°C 58.1°F14.5°C 97% 2.0 mph ENE3.2 kmh ENE 5.0 mph8.0 kmh 29.87 in1011.5 mb 0.00 in0.0 mm 0.00 in0.0 mm 1.36 in34.5 mm
09:14 PM 58.9°F14.9°C 58.1°F14.5°C 97% 2.0 mph NNE3.2 kmh NNE 4.0 mph6.4 kmh 29.87 in1011.5 mb 0.00 in0.0 mm 0.00 in0.0 mm 1.36 in34.5 mm
09:12 PM 58.9°F14.9°C 58.1°F14.5°C 97% Calm Calm 6.0 mph9.7 kmh 29.87 in1011.5 mb 0.00 in0.0 mm 0.00 in0.0 mm 1.36 in34.5 mm
09:10 PM 58.9°F14.9°C 58.1°F14.5°C 97% Calm Calm 6.0 mph9.7 kmh 29.87 in1011.5 mb 0.00 in0.0 mm 0.00 in0.0 mm 1.36 in34.5 mm
09:08 PM 58.9°F14.9°C 58.1°F14.5°C 97% 1.0 mph E1.6 kmh E 6.0 mph9.7 kmh 29.88 in1011.9 mb 0.00 in0.0 mm 0.00 in0.0 mm 1.36 in34.5 mm
09:06 PM 58.9°F14.9°C 58.1°F14.5°C 97% 3.0 mph E4.8 kmh E 18.0 mph29.0 kmh 29.88 in1011.9 mb 0.00 in0.0 mm 0.00 in0.0 mm 1.36 in34.5 mm
09:04 PM 58.9°F14.9°C 58.1°F14.5°C 97% 1.0 mph ENE1.6 kmh ENE 4.0 mph6.4 kmh 29.88 in1011.9 mb 0.00 in0.0 mm 0.00 in0.0 mm 1.36 in34.5 mm
09:02 PM 58.9°F14.9°C 58.1°F14.5°C 97% 4.0 mph SSE6.4 kmh SSE 10.0 mph16.1 kmh 29.88 in1011.9 mb 0.00 in0.0 mm 0.00 in0.0 mm 1.36 in34.5 mm
09:00 PM 58.9°F14.9°C 58.1°F14.5°C 97% 2.0 mph ENE3.2 kmh ENE 10.0 mph16.1 kmh 29.88 in1011.9 mb 0.00 in0.0 mm 0.00 in0.0 mm 1.36 in34.5 mm
08:58 PM 58.9°F14.9°C 58.1°F14.5°C 97% 2.0 mph ENE3.2 kmh ENE 10.0 mph16.1 kmh 29.88 in1011.9 mb 0.00 in0.0 mm 0.00 in0.0 mm 1.36 in34.5 mm
08:56 PM 58.9°F14.9°C 58.1°F14.5°C 97% 2.0 mph NE3.2 kmh NE 8.0 mph12.9 kmh 29.88 in1011.9 mb 0.00 in0.0 mm 0.00 in0.0 mm 1.36 in34.5 mm
08:54 PM 58.9°F14.9°C 58.1°F14.5°C 97% 3.0 mph E4.8 kmh E 8.0 mph12.9 kmh 29.88 in1011.9 mb 0.00 in0.0 mm 0.00 in0.0 mm 1.36 in34.5 mm
08:52 PM 58.9°F14.9°C 58.1°F14.5°C 97% 4.0 mph E6.4 kmh E 6.0 mph9.7 kmh 29.89 in1012.2 mb 0.00 in0.0 mm 0.00 in0.0 mm 1.36 in34.5 mm
08:50 PM 58.9°F14.9°C 58.1°F14.5°C 97% 2.0 mph ESE3.2 kmh ESE 6.0 mph9.7 kmh 29.88 in1011.9 mb 0.00 in0.0 mm 0.00 in0.0 mm 1.36 in34.5 mm
08:48 PM 58.9°F14.9°C 58.1°F14.5°C 97% 2.0 mph NE3.2 kmh NE 2.0 mph3.2 kmh 29.88 in1011.9 mb 0.00 in0.0 mm 0.00 in0.0 mm 1.36 in34.5 mm
08:46 PM 58.9°F14.9°C 58.1°F14.5°C 97% Calm Calm 5.0 mph8.0 kmh 29.88 in1011.9 mb 0.00 in0.0 mm 0.00 in0.0 mm 1.36 in34.5 mm
08:44 PM 58.9°F14.9°C 58.1°F14.5°C 97% 3.0 mph E4.8 kmh E 5.0 mph8.0 kmh 29.88 in1011.9 mb 0.00 in0.0 mm 0.00 in0.0 mm 1.36 in34.5 mm
08:42 PM 58.9°F14.9°C 58.1°F14.5°C 97% Calm Calm 7.0 mph11.3 kmh 29.88 in1011.9 mb 0.00 in0.0 mm 0.00 in0.0 mm 1.36 in34.5 mm
08:40 PM 58.9°F14.9°C 58.1°F14.5°C 97% Calm Calm 7.0 mph11.3 kmh 29.88 in1011.9 mb 0.00 in0.0 mm 0.00 in0.0 mm 1.36 in34.5 mm
08:38 PM 58.9°F14.9°C 58.1°F14.5°C 97% 6.0 mph ENE9.7 kmh ENE 7.0 mph11.3 kmh 29.88 in1011.9 mb 0.00 in0.0 mm 0.00 in0.0 mm 1.36 in34.5 mm
08:36 PM 58.8°F14.9°C 58.0°F14.4°C 97% 8.0 mph E12.9 kmh E 8.0 mph12.9 kmh 29.88 in1011.9 mb 0.00 in0.0 mm 0.00 in0.0 mm 1.36 in34.5 mm
08:34 PM 58.8°F14.9°C 58.0°F14.4°C 97% 1.0 mph SE1.6 kmh SE 8.0 mph12.9 kmh 29.88 in1011.9 mb 0.00 in0.0 mm 0.00 in0.0 mm 1.36 in34.5 mm
08:32 PM 58.8°F14.9°C 58.0°F14.4°C 97% 8.0 mph NE12.9 kmh NE 8.0 mph12.9 kmh 29.88 in1011.9 mb 0.00 in0.0 mm 0.00 in0.0 mm 1.36 in34.5 mm
08:30 PM 58.8°F14.9°C 58.0°F14.4°C 97% 2.0 mph ESE3.2 kmh ESE 5.0 mph8.0 kmh 29.88 in1011.9 mb 0.00 in0.0 mm 0.00 in0.0 mm 1.36 in34.5 mm
08:28 PM 58.8°F14.9°C 58.0°F14.4°C 97% 2.0 mph WNW3.2 kmh WNW 2.0 mph3.2 kmh 29.88 in1011.9 mb 0.00 in0.0 mm 0.00 in0.0 mm 1.36 in34.5 mm
08:26 PM 58.9°F14.9°C 58.1°F14.5°C 97% 8.0 mph E12.9 kmh E 8.0 mph12.9 kmh 29.88 in1011.9 mb 0.00 in0.0 mm 0.00 in0.0 mm 1.36 in34.5 mm
08:24 PM 58.9°F14.9°C 58.1°F14.5°C 97% 6.0 mph E9.7 kmh E 8.0 mph12.9 kmh 29.88 in1011.9 mb 0.00 in0.0 mm 0.00 in0.0 mm 1.36 in34.5 mm
08:22 PM 58.9°F14.9°C 58.1°F14.5°C 97% Calm Calm 4.0 mph6.4 kmh 29.88 in1011.9 mb 0.00 in0.0 mm 0.00 in0.0 mm 1.36 in34.5 mm
08:20 PM 58.9°F14.9°C 58.1°F14.5°C 97% Calm Calm 4.0 mph6.4 kmh 29.88 in1011.9 mb 0.00 in0.0 mm 0.00 in0.0 mm 1.36 in34.5 mm
08:18 PM 58.9°F14.9°C 58.1°F14.5°C 97% 2.0 mph NE3.2 kmh NE 4.0 mph6.4 kmh 29.88 in1011.9 mb 0.00 in0.0 mm 0.00 in0.0 mm 1.36 in34.5 mm
08:16 PM 58.9°F14.9°C 58.1°F14.5°C 97% 5.0 mph NE8.0 kmh NE 10.0 mph16.1 kmh 29.88 in1011.9 mb 0.00 in0.0 mm 0.00 in0.0 mm 1.36 in34.5 mm
08:14 PM 58.9°F14.9°C 58.1°F14.5°C 97% Calm Calm 10.0 mph16.1 kmh 29.88 in1011.9 mb 0.00 in0.0 mm 0.00 in0.0 mm 1.36 in34.5 mm
08:12 PM 58.9°F14.9°C 58.1°F14.5°C 97% 2.0 mph E3.2 kmh E 14.0 mph22.5 kmh 29.88 in1011.9 mb 0.00 in0.0 mm 0.00 in0.0 mm 1.36 in34.5 mm
08:10 PM 58.9°F14.9°C 58.1°F14.5°C 97% 8.0 mph SE12.9 kmh SE 14.0 mph22.5 kmh 29.88 in1011.9 mb 0.00 in0.0 mm 0.00 in0.0 mm 1.36 in34.5 mm
08:08 PM 58.9°F14.9°C 58.1°F14.5°C 97% 6.0 mph NW9.7 kmh NW 6.0 mph9.7 kmh 29.88 in1011.9 mb 0.00 in0.0 mm 0.00 in0.0 mm 1.36 in34.5 mm
08:06 PM 58.9°F14.9°C 58.1°F14.5°C 97% 4.0 mph ENE6.4 kmh ENE 9.0 mph14.5 kmh 29.88 in1011.9 mb 0.00 in0.0 mm 0.00 in0.0 mm 1.36 in34.5 mm
08:04 PM 58.9°F14.9°C 58.1°F14.5°C 97% 4.0 mph E6.4 kmh E 9.0 mph14.5 kmh 29.88 in1011.9 mb 0.00 in0.0 mm 0.00 in0.0 mm 1.36 in34.5 mm
08:02 PM 58.9°F14.9°C 58.1°F14.5°C 97% 2.0 mph NE3.2 kmh NE 8.0 mph12.9 kmh 29.87 in1011.5 mb 0.00 in0.0 mm 0.00 in0.0 mm 1.36 in34.5 mm
08:00 PM 58.9°F14.9°C 58.1°F14.5°C 97% 4.0 mph NE6.4 kmh NE 8.0 mph12.9 kmh 29.87 in1011.5 mb 0.00 in0.0 mm 0.00 in0.0 mm 1.36 in34.5 mm
07:58 PM 58.9°F14.9°C 58.1°F14.5°C 97% Calm Calm 2.0 mph3.2 kmh 29.88 in1011.9 mb 0.00 in0.0 mm 0.00 in0.0 mm 1.36 in34.5 mm
07:56 PM 59.0°F15.0°C 58.2°F14.6°C 97% 3.0 mph NE4.8 kmh NE 5.0 mph8.0 kmh 29.88 in1011.9 mb 0.00 in0.0 mm 0.00 in0.0 mm 1.36 in34.5 mm
07:54 PM 58.9°F14.9°C 58.1°F14.5°C 97% 4.0 mph ESE6.4 kmh ESE 4.0 mph6.4 kmh 29.88 in1011.9 mb 0.00 in0.0 mm 0.00 in0.0 mm 1.36 in34.5 mm
07:52 PM 59.0°F15.0°C 58.2°F14.6°C 97% 1.0 mph E1.6 kmh E 7.0 mph11.3 kmh 29.88 in1011.9 mb 0.00 in0.0 mm 0.00 in0.0 mm 1.36 in34.5 mm
07:50 PM 59.0°F15.0°C 58.2°F14.6°C 97% 3.0 mph SE4.8 kmh SE 7.0 mph11.3 kmh 29.88 in1011.9 mb 0.00 in0.0 mm 0.00 in0.0 mm 1.36 in34.5 mm
07:48 PM 59.0°F15.0°C 58.2°F14.6°C 97% Calm Calm 1.0 mph1.6 kmh 29.87 in1011.5 mb 0.00 in0.0 mm 0.00 in0.0 mm 1.36 in34.5 mm
07:46 PM 59.0°F15.0°C 58.2°F14.6°C 97% 3.0 mph ENE4.8 kmh ENE 5.0 mph8.0 kmh 29.87 in1011.5 mb 0.00 in0.0 mm 0.00 in0.0 mm 1.36 in34.5 mm
07:44 PM 59.0°F15.0°C 58.2°F14.6°C 97% 2.0 mph N3.2 kmh N 5.0 mph8.0 kmh 29.87 in1011.5 mb 0.00 in0.0 mm 0.00 in0.0 mm 1.36 in34.5 mm
07:42 PM 59.1°F15.1°C 58.3°F14.6°C 97% 2.0 mph ESE3.2 kmh ESE 7.0 mph11.3 kmh 29.87 in1011.5 mb 0.00 in0.0 mm 0.00 in0.0 mm 1.36 in34.5 mm
07:40 PM 59.1°F15.1°C 58.3°F14.6°C 97% 4.0 mph NE6.4 kmh NE 7.0 mph11.3 kmh 29.87 in1011.5 mb 0.00 in0.0 mm 0.00 in0.0 mm 1.36 in34.5 mm
07:38 PM 59.1°F15.1°C 58.3°F14.6°C 97% Calm Calm 2.0 mph3.2 kmh 29.87 in1011.5 mb 0.00 in0.0 mm 0.00 in0.0 mm 1.36 in34.5 mm
07:36 PM 59.1°F15.1°C 58.3°F14.6°C 97% 1.0 mph SE1.6 kmh SE 7.0 mph11.3 kmh 29.87 in1011.5 mb 0.00 in0.0 mm 0.00 in0.0 mm 1.36 in34.5 mm
07:34 PM 59.1°F15.1°C 58.5°F14.7°C 98% 1.0 mph ENE1.6 kmh ENE 7.0 mph11.3 kmh 29.87 in1011.5 mb 0.00 in0.0 mm 0.00 in0.0 mm 1.36 in34.5 mm
07:32 PM 59.1°F15.1°C 58.5°F14.7°C 98% 1.0 mph NNW1.6 kmh NNW 4.0 mph6.4 kmh 29.87 in1011.5 mb 0.00 in0.0 mm 0.00 in0.0 mm 1.36 in34.5 mm
07:30 PM 59.1°F15.1°C 58.5°F14.7°C 98% 1.0 mph SE1.6 kmh SE 4.0 mph6.4 kmh 29.87 in1011.5 mb 0.00 in0.0 mm 0.00 in0.0 mm 1.36 in34.5 mm
07:28 PM 59.0°F15.0°C 58.4°F14.7°C 98% 1.0 mph ENE1.6 kmh ENE 4.0 mph6.4 kmh 29.87 in1011.5 mb 0.00 in0.0 mm 0.00 in0.0 mm 1.36 in34.5 mm
07:26 PM 59.0°F15.0°C 58.4°F14.7°C 98% 3.0 mph E4.8 kmh E 6.0 mph9.7 kmh 29.87 in1011.5 mb 0.00 in0.0 mm 0.00 in0.0 mm 1.36 in34.5 mm
07:24 PM 59.0°F15.0°C 58.4°F14.7°C 98% 1.0 mph SE1.6 kmh SE 6.0 mph9.7 kmh 29.87 in1011.5 mb 0.00 in0.0 mm 0.00 in0.0 mm 1.36 in34.5 mm
07:22 PM 59.0°F15.0°C 58.4°F14.7°C 98% 6.0 mph E9.7 kmh E 8.0 mph12.9 kmh 29.88 in1011.9 mb 0.00 in0.0 mm 0.00 in0.0 mm 1.36 in34.5 mm
07:20 PM 59.0°F15.0°C 58.4°F14.7°C 98% 1.0 mph NE1.6 kmh NE 4.0 mph6.4 kmh 29.88 in1011.9 mb 0.00 in0.0 mm 0.00 in0.0 mm 1.36 in34.5 mm
07:18 PM 59.0°F15.0°C 58.4°F14.7°C 98% 3.0 mph ENE4.8 kmh ENE 4.0 mph6.4 kmh 29.88 in1011.9 mb 0.00 in0.0 mm 0.00 in0.0 mm 1.36 in34.5 mm
07:16 PM 59.0°F15.0°C 58.4°F14.7°C 98% Calm Calm 7.0 mph11.3 kmh 29.88 in1011.9 mb 0.00 in0.0 mm 0.00 in0.0 mm 1.36 in34.5 mm
07:14 PM 59.0°F15.0°C 58.4°F14.7°C 98% Calm Calm 7.0 mph11.3 kmh 29.88 in1011.9 mb 0.00 in0.0 mm 0.00 in0.0 mm 1.36 in34.5 mm
07:12 PM 59.0°F15.0°C 58.4°F14.7°C 98% 2.0 mph ENE3.2 kmh ENE 7.0 mph11.3 kmh 29.88 in1011.9 mb 0.01 in0.3 mm 0.00 in0.0 mm 1.36 in34.5 mm
07:10 PM 59.0°F15.0°C 58.4°F14.7°C 98% 2.0 mph ESE3.2 kmh ESE 7.0 mph11.3 kmh 29.88 in1011.9 mb 0.01 in0.3 mm 0.00 in0.0 mm 1.36 in34.5 mm
07:08 PM 59.0°F15.0°C 58.4°F14.7°C 98% Calm Calm 3.0 mph4.8 kmh 29.88 in1011.9 mb 0.01 in0.3 mm 0.00 in0.0 mm 1.36 in34.5 mm
07:06 PM 59.0°F15.0°C 58.4°F14.7°C 98% Calm Calm 10.0 mph16.1 kmh 29.88 in1011.9 mb 0.01 in0.3 mm 0.00 in0.0 mm 1.36 in34.5 mm
07:04 PM 59.1°F15.1°C 58.5°F14.7°C 98% 3.0 mph S4.8 kmh S 10.0 mph16.1 kmh 29.88 in1011.9 mb 0.01 in0.3 mm 0.00 in0.0 mm 1.36 in34.5 mm
07:02 PM 59.1°F15.1°C 58.5°F14.7°C 98% 1.0 mph N1.6 kmh N 5.0 mph8.0 kmh 29.88 in1011.9 mb 0.02 in0.5 mm 0.00 in0.0 mm 1.36 in34.5 mm
07:00 PM 59.1°F15.1°C 58.5°F14.7°C 98% Calm Calm 5.0 mph8.0 kmh 29.88 in1011.9 mb 0.02 in0.5 mm 0.00 in0.0 mm 1.36 in34.5 mm
06:58 PM 59.2°F15.1°C 58.6°F14.8°C 98% 5.0 mph ENE8.0 kmh ENE 5.0 mph8.0 kmh 29.88 in1011.9 mb 0.02 in0.5 mm 0.00 in0.0 mm 1.36 in34.5 mm
06:56 PM 59.2°F15.1°C 58.6°F14.8°C 98% Calm Calm 2.0 mph3.2 kmh 29.88 in1011.9 mb 0.02 in0.5 mm 0.00 in0.0 mm 1.36 in34.5 mm
06:54 PM 59.2°F15.1°C 58.6°F14.8°C 98% Calm Calm 2.0 mph3.2 kmh 29.88 in1011.9 mb 0.02 in0.5 mm 0.00 in0.0 mm 1.36 in34.5 mm
06:52 PM 59.2°F15.1°C 58.6°F14.8°C 98% Calm Calm 8.0 mph12.9 kmh 29.88 in1011.9 mb 0.03 in0.8 mm 0.00 in0.0 mm 1.36 in34.5 mm
06:50 PM 59.2°F15.1°C 58.6°F14.8°C 98% 3.0 mph NE4.8 kmh NE 3.0 mph4.8 kmh 29.88 in1011.9 mb 0.03 in0.8 mm 0.00 in0.0 mm 1.36 in34.5 mm
06:48 PM 59.2°F15.1°C 58.6°F14.8°C 98% Calm Calm 3.0 mph4.8 kmh 29.88 in1011.9 mb 0.03 in0.8 mm 0.00 in0.0 mm 1.36 in34.5 mm
06:46 PM 59.3°F15.2°C 58.7°F14.8°C 98% 3.0 mph NE4.8 kmh NE 5.0 mph8.0 kmh 29.88 in1011.9 mb 0.03 in0.8 mm 0.00 in0.0 mm 1.36 in34.5 mm
06:44 PM 59.3°F15.2°C 58.7°F14.8°C 98% Calm Calm 3.0 mph4.8 kmh 29.88 in1011.9 mb 0.03 in0.8 mm 0.00 in0.0 mm 1.36 in34.5 mm
06:42 PM 59.2°F15.1°C 58.9°F14.9°C 99% Calm Calm 5.0 mph8.0 kmh 29.88 in1011.9 mb 0.03 in0.8 mm 0.00 in0.0 mm 1.36 in34.5 mm
06:40 PM 59.2°F15.1°C 58.9°F14.9°C 99% Calm Calm 5.0 mph8.0 kmh 29.88 in1011.9 mb 0.03 in0.8 mm 0.00 in0.0 mm 1.36 in34.5 mm
06:38 PM 59.1°F15.1°C 58.5°F14.7°C 98% 1.0 mph E1.6 kmh E 5.0 mph8.0 kmh 29.87 in1011.5 mb 0.03 in0.8 mm 0.00 in0.0 mm 1.36 in34.5 mm
06:36 PM 59.1°F15.1°C 58.5°F14.7°C 98% 2.0 mph NE3.2 kmh NE 3.0 mph4.8 kmh 29.87 in1011.5 mb 0.03 in0.8 mm 0.00 in0.0 mm 1.36 in34.5 mm
06:34 PM 59.1°F15.1°C 58.5°F14.7°C 98% 2.0 mph NE3.2 kmh NE 3.0 mph4.8 kmh 29.88 in1011.9 mb 0.03 in0.8 mm 0.00 in0.0 mm 1.36 in34.5 mm
06:32 PM 59.1°F15.1°C 58.5°F14.7°C 98% Calm Calm 9.0 mph14.5 kmh 29.88 in1011.9 mb 0.03 in0.8 mm 0.00 in0.0 mm 1.36 in34.5 mm
06:30 PM 59.0°F15.0°C 58.4°F14.7°C 98% Calm Calm 8.0 mph12.9 kmh 29.88 in1011.9 mb 0.03 in0.8 mm 0.00 in0.0 mm 1.36 in34.5 mm
06:28 PM 59.0°F15.0°C 58.4°F14.7°C 98% 2.0 mph E3.2 kmh E 8.0 mph12.9 kmh 29.88 in1011.9 mb 0.03 in0.8 mm 0.00 in0.0 mm 1.36 in34.5 mm
06:26 PM 59.0°F15.0°C 58.4°F14.7°C 98% 2.0 mph ENE3.2 kmh ENE 7.0 mph11.3 kmh 29.88 in1011.9 mb 0.03 in0.8 mm 0.00 in0.0 mm 1.36 in34.5 mm
06:24 PM 59.0°F15.0°C 58.4°F14.7°C 98% 3.0 mph NE4.8 kmh NE 5.0 mph8.0 kmh 29.88 in1011.9 mb 0.03 in0.8 mm 0.00 in0.0 mm 1.36 in34.5 mm
06:22 PM 59.0°F15.0°C 58.4°F14.7°C 98% 4.0 mph NNE6.4 kmh NNE 8.0 mph12.9 kmh 29.88 in1011.9 mb 0.03 in0.8 mm 0.00 in0.0 mm 1.36 in34.5 mm
06:20 PM 58.9°F14.9°C 58.3°F14.6°C 98% 4.0 mph E6.4 kmh E 8.0 mph12.9 kmh 29.88 in1011.9 mb 0.03 in0.8 mm 0.00 in0.0 mm 1.36 in34.5 mm
06:18 PM 58.9°F14.9°C 58.3°F14.6°C 98% 2.0 mph NE3.2 kmh NE 4.0 mph6.4 kmh 29.88 in1011.9 mb 0.03 in0.8 mm 0.00 in0.0 mm 1.36 in34.5 mm
06:16 PM 59.0°F15.0°C 58.4°F14.7°C 98% 5.0 mph NE8.0 kmh NE 7.0 mph11.3 kmh 29.88 in1011.9 mb 0.03 in0.8 mm 0.00 in0.0 mm 1.36 in34.5 mm
06:14 PM 59.0°F15.0°C 58.4°F14.7°C 98% 1.0 mph SSE1.6 kmh SSE 3.0 mph4.8 kmh 29.88 in1011.9 mb 0.03 in0.8 mm 0.00 in0.0 mm 1.36 in34.5 mm
06:12 PM 59.0°F15.0°C 58.4°F14.7°C 98% 2.0 mph ENE3.2 kmh ENE 3.0 mph4.8 kmh 29.89 in1012.2 mb 0.03 in0.8 mm 0.00 in0.0 mm 1.36 in34.5 mm
06:10 PM 58.9°F14.9°C 58.3°F14.6°C 98% Calm Calm 3.0 mph4.8 kmh 29.89 in1012.2 mb 0.03 in0.8 mm 0.00 in0.0 mm 1.36 in34.5 mm
06:08 PM 59.0°F15.0°C 58.4°F14.7°C 98% 2.0 mph ENE3.2 kmh ENE 3.0 mph4.8 kmh 29.89 in1012.2 mb 0.03 in0.8 mm 0.30 in7.6 mm 1.36 in34.5 mm
06:06 PM 59.0°F15.0°C 58.4°F14.7°C 98% 1.0 mph ENE1.6 kmh ENE 10.0 mph16.1 kmh 29.89 in1012.2 mb 0.02 in0.5 mm 0.00 in0.0 mm 1.35 in34.3 mm
06:04 PM 59.1°F15.1°C 58.5°F14.7°C 98% 4.0 mph ENE6.4 kmh ENE 5.0 mph8.0 kmh 29.90 in1012.5 mb 0.02 in0.5 mm 0.00 in0.0 mm 1.35 in34.3 mm
06:02 PM 59.1°F15.1°C 58.5°F14.7°C 98% 1.0 mph NE1.6 kmh NE 4.0 mph6.4 kmh 29.90 in1012.5 mb 0.02 in0.5 mm 0.30 in7.6 mm 1.35 in34.3 mm
06:00 PM 59.1°F15.1°C 58.5°F14.7°C 98% 2.0 mph E3.2 kmh E 4.0 mph6.4 kmh 29.90 in1012.5 mb 0.01 in0.3 mm 0.00 in0.0 mm 1.34 in34.0 mm
05:58 PM 59.1°F15.1°C 58.5°F14.7°C 98% 4.0 mph NNE6.4 kmh NNE 4.0 mph6.4 kmh 29.90 in1012.5 mb 0.01 in0.3 mm 0.00 in0.0 mm 1.34 in34.0 mm
05:56 PM 59.1°F15.1°C 58.5°F14.7°C 98% 2.0 mph E3.2 kmh E 11.0 mph17.7 kmh 29.90 in1012.5 mb 0.01 in0.3 mm 0.00 in0.0 mm 1.34 in34.0 mm
05:54 PM 59.2°F15.1°C 58.6°F14.8°C 98% Calm Calm 5.0 mph8.0 kmh 29.90 in1012.5 mb 0.01 in0.3 mm 0.00 in0.0 mm 1.34 in34.0 mm
05:52 PM 59.3°F15.2°C 58.7°F14.8°C 98% 2.0 mph SE3.2 kmh SE 11.0 mph17.7 kmh 29.90 in1012.5 mb 0.03 in0.8 mm 0.30 in7.6 mm 1.34 in34.0 mm
05:50 PM 59.3°F15.2°C 58.7°F14.8°C 98% 3.0 mph NE4.8 kmh NE 11.0 mph17.7 kmh 29.90 in1012.5 mb 0.02 in0.5 mm 0.00 in0.0 mm 1.33 in33.8 mm
05:48 PM 59.5°F15.3°C 58.9°F14.9°C 98% Calm Calm -- 29.90 in1012.5 mb 0.02 in0.5 mm 0.00 in0.0 mm 1.33 in33.8 mm
05:46 PM 59.5°F15.3°C 58.9°F14.9°C 98% 3.0 mph E4.8 kmh E 6.0 mph9.7 kmh 29.90 in1012.5 mb 0.02 in0.5 mm 0.00 in0.0 mm 1.33 in33.8 mm
05:44 PM 59.5°F15.3°C 58.9°F14.9°C 98% Calm Calm 6.0 mph9.7 kmh 29.90 in1012.5 mb 0.02 in0.5 mm 0.00 in0.0 mm 1.33 in33.8 mm
05:42 PM 59.6°F15.3°C 59.0°F15.0°C 98% 4.0 mph ENE6.4 kmh ENE 8.0 mph12.9 kmh 29.89 in1012.2 mb 0.02 in0.5 mm 0.00 in0.0 mm 1.33 in33.8 mm
05:40 PM 59.7°F15.4°C 59.1°F15.1°C 98% 7.0 mph NE11.3 kmh NE 8.0 mph12.9 kmh 29.89 in1012.2 mb 0.02 in0.5 mm 0.00 in0.0 mm 1.33 in33.8 mm
05:38 PM 59.8°F15.4°C 59.2°F15.1°C 98% 2.0 mph SE3.2 kmh SE 6.0 mph9.7 kmh 29.89 in1012.2 mb 0.02 in0.5 mm 0.00 in0.0 mm 1.33 in33.8 mm
05:36 PM 59.8°F15.4°C 59.2°F15.1°C 98% 4.0 mph NE6.4 kmh NE 6.0 mph9.7 kmh 29.89 in1012.2 mb 0.02 in0.5 mm 0.00 in0.0 mm 1.33 in33.8 mm
05:34 PM 59.9°F15.5°C 59.3°F15.2°C 98% 5.0 mph NE8.0 kmh NE 6.0 mph9.7 kmh 29.89 in1012.2 mb 0.02 in0.5 mm 0.00 in0.0 mm 1.33 in33.8 mm
05:32 PM 60.0°F15.6°C 59.4°F15.2°C 98% 1.0 mph S1.6 kmh S 10.0 mph16.1 kmh 29.89 in1012.2 mb 0.02 in0.5 mm 0.00 in0.0 mm 1.33 in33.8 mm
05:30 PM 59.9°F15.5°C 59.3°F15.2°C 98% Calm Calm 10.0 mph16.1 kmh 29.89 in1012.2 mb 0.02 in0.5 mm 0.00 in0.0 mm 1.33 in33.8 mm
05:28 PM 59.9°F15.5°C 59.3°F15.2°C 98% 2.0 mph E3.2 kmh E 10.0 mph16.1 kmh 29.89 in1012.2 mb 0.02 in0.5 mm 0.00 in0.0 mm 1.33 in33.8 mm
05:26 PM 59.9°F15.5°C 59.3°F15.2°C 98% 2.0 mph ESE3.2 kmh ESE 12.0 mph19.3 kmh 29.89 in1012.2 mb 0.02 in0.5 mm 0.00 in0.0 mm 1.33 in33.8 mm
05:24 PM 60.0°F15.6°C 59.4°F15.2°C 98% 4.0 mph E6.4 kmh E 12.0 mph19.3 kmh 29.89 in1012.2 mb 0.02 in0.5 mm 0.00 in0.0 mm 1.33 in33.8 mm
05:22 PM 60.0°F15.6°C 59.4°F15.2°C 98% 3.0 mph N4.8 kmh N 10.0 mph16.1 kmh 29.89 in1012.2 mb 0.02 in0.5 mm 0.00 in0.0 mm 1.33 in33.8 mm
05:20 PM 60.0°F15.6°C 59.4°F15.2°C 98% 3.0 mph E4.8 kmh E 10.0 mph16.1 kmh 29.89 in1012.2 mb 0.02 in0.5 mm 0.00 in0.0 mm 1.33 in33.8 mm
05:18 PM 60.3°F15.7°C 59.7°F15.4°C 98% 5.0 mph NW8.0 kmh NW 7.0 mph11.3 kmh 29.89 in1012.2 mb 0.02 in0.5 mm 0.00 in0.0 mm 1.33 in33.8 mm
05:16 PM 60.5°F15.8°C 59.9°F15.5°C 98% 4.0 mph NE6.4 kmh NE 6.0 mph9.7 kmh 29.89 in1012.2 mb 0.02 in0.5 mm 0.00 in0.0 mm 1.33 in33.8 mm
05:14 PM 60.5°F15.8°C 59.9°F15.5°C 98% Calm Calm 6.0 mph9.7 kmh 29.89 in1012.2 mb 0.02 in0.5 mm 0.00 in0.0 mm 1.33 in33.8 mm
05:12 PM 60.6°F15.9°C 60.0°F15.6°C 98% 3.0 mph NNE4.8 kmh NNE 4.0 mph6.4 kmh 29.89 in1012.2 mb 0.02 in0.5 mm 0.00 in0.0 mm 1.33 in33.8 mm
05:10 PM 60.7°F15.9°C 60.1°F15.6°C 98% 3.0 mph E4.8 kmh E 3.0 mph4.8 kmh 29.89 in1012.2 mb 0.02 in0.5 mm 0.00 in0.0 mm 1.33 in33.8 mm
05:08 PM 60.6°F15.9°C 60.0°F15.6°C 98% Calm Calm 2.0 mph3.2 kmh 29.89 in1012.2 mb 0.02 in0.5 mm 0.00 in0.0 mm 1.33 in33.8 mm
05:06 PM 60.7°F15.9°C 60.1°F15.6°C 98% 2.0 mph E3.2 kmh E 9.0 mph14.5 kmh 29.89 in1012.2 mb 0.02 in0.5 mm 0.00 in0.0 mm 1.33 in33.8 mm
05:04 PM 60.7°F15.9°C 60.1°F15.6°C 98% Calm Calm 8.0 mph12.9 kmh 29.89 in1012.2 mb 0.02 in0.5 mm 0.00 in0.0 mm 1.33 in33.8 mm
05:02 PM 60.8°F16.0°C 60.2°F15.7°C 98% 4.0 mph NNE6.4 kmh NNE 4.0 mph6.4 kmh 29.89 in1012.2 mb 0.02 in0.5 mm 0.00 in0.0 mm 1.33 in33.8 mm
05:00 PM 60.7°F15.9°C 60.1°F15.6°C 98% 1.0 mph NNE1.6 kmh NNE 4.0 mph6.4 kmh 29.89 in1012.2 mb 0.02 in0.5 mm 0.00 in0.0 mm 1.33 in33.8 mm
04:58 PM 60.6°F15.9°C 60.0°F15.6°C 98% 2.0 mph ESE3.2 kmh ESE 4.0 mph6.4 kmh 29.89 in1012.2 mb 0.02 in0.5 mm 0.00 in0.0 mm 1.33 in33.8 mm
04:56 PM 60.5°F15.8°C 59.9°F15.5°C 98% 2.0 mph ENE3.2 kmh ENE 5.0 mph8.0 kmh 29.89 in1012.2 mb 0.02 in0.5 mm 0.00 in0.0 mm 1.33 in33.8 mm
04:54 PM 60.3°F15.7°C 59.7°F15.4°C 98% 1.0 mph SE1.6 kmh SE 5.0 mph8.0 kmh 29.89 in1012.2 mb 0.02 in0.5 mm 0.00 in0.0 mm 1.33 in33.8 mm
04:52 PM 60.1°F15.6°C 59.5°F15.3°C 98% 3.0 mph ESE4.8 kmh ESE 4.0 mph6.4 kmh 29.89 in1012.2 mb 0.02 in0.5 mm 0.30 in7.6 mm 1.33 in33.8 mm
04:50 PM 60.1°F15.6°C 59.5°F15.3°C 98% 1.0 mph NW1.6 kmh NW 4.0 mph6.4 kmh 29.89 in1012.2 mb 0.01 in0.3 mm 0.30 in7.6 mm 1.32 in33.5 mm
04:48 PM 60.1°F15.6°C 59.5°F15.3°C 98% Calm Calm 2.0 mph3.2 kmh 29.90 in1012.5 mb 0.00 in0.0 mm 0.00 in0.0 mm 1.31 in33.3 mm
04:46 PM 60.1°F15.6°C 59.5°F15.3°C 98% 2.0 mph SE3.2 kmh SE 4.0 mph6.4 kmh 29.90 in1012.5 mb 0.00 in0.0 mm 0.00 in0.0 mm 1.31 in33.3 mm
04:44 PM 60.1°F15.6°C 59.5°F15.3°C 98% 2.0 mph SE3.2 kmh SE 4.0 mph6.4 kmh 29.90 in1012.5 mb 0.00 in0.0 mm 0.00 in0.0 mm 1.31 in33.3 mm
04:42 PM 60.1°F15.6°C 59.3°F15.2°C 97% 3.0 mph NE4.8 kmh NE 8.0 mph12.9 kmh 29.90 in1012.5 mb 0.00 in0.0 mm 0.00 in0.0 mm 1.31 in33.3 mm
04:40 PM 60.1°F15.6°C 59.5°F15.3°C 98% 4.0 mph NNE6.4 kmh NNE 7.0 mph11.3 kmh 29.90 in1012.5 mb 0.00 in0.0 mm 0.00 in0.0 mm 1.31 in33.3 mm
04:38 PM 60.1°F15.6°C 59.3°F15.2°C 97% 2.0 mph ESE3.2 kmh ESE 4.0 mph6.4 kmh 29.90 in1012.5 mb 0.00 in0.0 mm 0.00 in0.0 mm 1.31 in33.3 mm
04:36 PM 60.1°F15.6°C 59.3°F15.2°C 97% 1.0 mph N1.6 kmh N 6.0 mph9.7 kmh 29.90 in1012.5 mb 0.00 in0.0 mm 0.00 in0.0 mm 1.31 in33.3 mm
04:34 PM 60.1°F15.6°C 59.3°F15.2°C 97% 1.0 mph E1.6 kmh E 6.0 mph9.7 kmh 29.90 in1012.5 mb 0.00 in0.0 mm 0.00 in0.0 mm 1.31 in33.3 mm
04:32 PM 60.1°F15.6°C 59.3°F15.2°C 97% 4.0 mph NE6.4 kmh NE 5.0 mph8.0 kmh 29.90 in1012.5 mb 0.00 in0.0 mm 0.00 in0.0 mm 1.31 in33.3 mm
04:30 PM 60.1°F15.6°C 59.5°F15.3°C 98% 2.0 mph SSE3.2 kmh SSE 5.0 mph8.0 kmh 29.90 in1012.5 mb 0.00 in0.0 mm 0.00 in0.0 mm 1.31 in33.3 mm
04:28 PM 60.2°F15.7°C 59.6°F15.3°C 98% 4.0 mph E6.4 kmh E 5.0 mph8.0 kmh 29.90 in1012.5 mb 0.00 in0.0 mm 0.00 in0.0 mm 1.31 in33.3 mm
04:26 PM 60.2°F15.7°C 59.4°F15.2°C 97% Calm Calm 7.0 mph11.3 kmh 29.91 in1012.9 mb 0.00 in0.0 mm 0.00 in0.0 mm 1.31 in33.3 mm
04:24 PM 60.2°F15.7°C 59.4°F15.2°C 97% 1.0 mph NNE1.6 kmh NNE 7.0 mph11.3 kmh 29.91 in1012.9 mb 0.00 in0.0 mm 0.00 in0.0 mm 1.31 in33.3 mm
04:22 PM 60.2°F15.7°C 59.4°F15.2°C 97% Calm Calm 9.0 mph14.5 kmh 29.91 in1012.9 mb 0.00 in0.0 mm 0.00 in0.0 mm 1.31 in33.3 mm
04:20 PM 60.4°F15.8°C 59.8°F15.4°C 98% 4.0 mph E6.4 kmh E 9.0 mph14.5 kmh 29.90 in1012.5 mb 0.00 in0.0 mm 0.00 in0.0 mm 1.31 in33.3 mm
04:18 PM 60.4°F15.8°C 59.8°F15.4°C 98% 3.0 mph ESE4.8 kmh ESE 4.0 mph6.4 kmh 29.91 in1012.9 mb 0.00 in0.0 mm 0.00 in0.0 mm 1.31 in33.3 mm
04:16 PM 60.4°F15.8°C 59.8°F15.4°C 98% Calm Calm 5.0 mph8.0 kmh 29.91 in1012.9 mb 0.00 in0.0 mm 0.00 in0.0 mm 1.31 in33.3 mm
04:14 PM 60.5°F15.8°C 59.9°F15.5°C 98% Calm Calm 3.0 mph4.8 kmh 29.91 in1012.9 mb 0.00 in0.0 mm 0.00 in0.0 mm 1.31 in33.3 mm
04:12 PM 60.4°F15.8°C 59.8°F15.4°C 98% 1.0 mph ESE1.6 kmh ESE 6.0 mph9.7 kmh 29.91 in1012.9 mb 0.00 in0.0 mm 0.00 in0.0 mm 1.31 in33.3 mm
04:10 PM 60.5°F15.8°C 59.9°F15.5°C 98% 3.0 mph E4.8 kmh E 6.0 mph9.7 kmh 29.91 in1012.9 mb 0.00 in0.0 mm 0.00 in0.0 mm 1.31 in33.3 mm
04:08 PM 60.7°F15.9°C 60.1°F15.6°C 98% Calm Calm 2.0 mph3.2 kmh 29.91 in1012.9 mb 0.00 in0.0 mm 0.00 in0.0 mm 1.31 in33.3 mm
04:06 PM 60.7°F15.9°C 60.1°F15.6°C 98% Calm Calm -- 29.91 in1012.9 mb 0.00 in0.0 mm 0.00 in0.0 mm 1.31 in33.3 mm
04:04 PM 60.6°F15.9°C 60.0°F15.6°C 98% Calm Calm -- 29.92 in1013.2 mb 0.00 in0.0 mm 0.00 in0.0 mm 1.31 in33.3 mm
04:02 PM 60.5°F15.8°C 59.9°F15.5°C 98% 1.0 mph NE1.6 kmh NE 4.0 mph6.4 kmh 29.92 in1013.2 mb 0.00 in0.0 mm 0.00 in0.0 mm 1.31 in33.3 mm
04:01 PM 60.6°F15.9°C 60.0°F15.6°C 98% 2.0 mph NE3.2 kmh NE 4.0 mph6.4 kmh 29.92 in1013.2 mb 0.00 in0.0 mm 0.00 in0.0 mm 1.31 in33.3 mm
03:58 PM 60.5°F15.8°C 59.9°F15.5°C 98% Calm Calm 4.0 mph6.4 kmh 29.92 in1013.2 mb 0.00 in0.0 mm 0.00 in0.0 mm 1.31 in33.3 mm
03:56 PM 60.7°F15.9°C 60.1°F15.6°C 98% 3.0 mph ENE4.8 kmh ENE 5.0 mph8.0 kmh 29.92 in1013.2 mb 0.00 in0.0 mm 0.00 in0.0 mm 1.31 in33.3 mm
03:54 PM 60.7°F15.9°C 60.1°F15.6°C 98% 1.0 mph NE1.6 kmh NE 5.0 mph8.0 kmh 29.92 in1013.2 mb 0.00 in0.0 mm 0.00 in0.0 mm 1.31 in33.3 mm
03:52 PM 60.8°F16.0°C 60.2°F15.7°C 98% 1.0 mph ESE1.6 kmh ESE 5.0 mph8.0 kmh 29.92 in1013.2 mb 0.00 in0.0 mm 0.00 in0.0 mm 1.31 in33.3 mm
03:50 PM 60.9°F16.1°C 60.3°F15.7°C 98% 2.0 mph NE3.2 kmh NE 5.0 mph8.0 kmh 29.92 in1013.2 mb 0.00 in0.0 mm 0.00 in0.0 mm 1.31 in33.3 mm
03:48 PM 61.1°F16.2°C 60.5°F15.8°C 98% Calm Calm 1.0 mph1.6 kmh 29.93 in1013.5 mb 0.00 in0.0 mm 0.00 in0.0 mm 1.31 in33.3 mm
03:46 PM 61.0°F16.1°C 60.4°F15.8°C 98% Calm Calm 5.0 mph8.0 kmh 29.93 in1013.5 mb 0.00 in0.0 mm 0.00 in0.0 mm 1.31 in33.3 mm
03:44 PM 61.1°F16.2°C 60.5°F15.8°C 98% 2.0 mph ENE3.2 kmh ENE 5.0 mph8.0 kmh 29.93 in1013.5 mb 0.00 in0.0 mm 0.00 in0.0 mm 1.31 in33.3 mm
03:42 PM 61.1°F16.2°C 60.5°F15.8°C 98% Calm Calm 6.0 mph9.7 kmh 29.93 in1013.5 mb 0.00 in0.0 mm 0.00 in0.0 mm 1.31 in33.3 mm
03:40 PM 61.1°F16.2°C 60.5°F15.8°C 98% 1.0 mph NE1.6 kmh NE 6.0 mph9.7 kmh 29.93 in1013.5 mb 0.00 in0.0 mm 0.00 in0.0 mm 1.31 in33.3 mm
03:38 PM 61.1°F16.2°C 60.5°F15.8°C 98% 6.0 mph ENE9.7 kmh ENE 6.0 mph9.7 kmh 29.93 in1013.5 mb 0.00 in0.0 mm 0.00 in0.0 mm 1.31 in33.3 mm
03:36 PM 61.1°F16.2°C 60.5°F15.8°C 98% 1.0 mph SE1.6 kmh SE 2.0 mph3.2 kmh 29.93 in1013.5 mb 0.00 in0.0 mm 0.00 in0.0 mm 1.31 in33.3 mm
03:34 PM 60.9°F16.1°C 60.3°F15.7°C 98% Calm Calm 2.0 mph3.2 kmh 29.93 in1013.5 mb 0.00 in0.0 mm 0.00 in0.0 mm 1.31 in33.3 mm
03:32 PM 60.9°F16.1°C 60.3°F15.7°C 98% 2.0 mph ESE3.2 kmh ESE 5.0 mph8.0 kmh 29.93 in1013.5 mb 0.00 in0.0 mm 0.00 in0.0 mm 1.31 in33.3 mm
03:30 PM 60.8°F16.0°C 60.2°F15.7°C 98% Calm Calm 5.0 mph8.0 kmh 29.93 in1013.5 mb 0.00 in0.0 mm 0.00 in0.0 mm 1.31 in33.3 mm
03:28 PM 60.7°F15.9°C 60.1°F15.6°C 98% 4.0 mph E6.4 kmh E 5.0 mph8.0 kmh 29.93 in1013.5 mb 0.00 in0.0 mm 0.00 in0.0 mm 1.31 in33.3 mm
03:26 PM 60.6°F15.9°C 60.0°F15.6°C 98% 4.0 mph NE6.4 kmh NE 6.0 mph9.7 kmh 29.93 in1013.5 mb 0.00 in0.0 mm 0.00 in0.0 mm 1.31 in33.3 mm
03:24 PM 60.6°F15.9°C 60.0°F15.6°C 98% Calm Calm 4.0 mph6.4 kmh 29.93 in1013.5 mb 0.00 in0.0 mm 0.00 in0.0 mm 1.31 in33.3 mm
03:22 PM 60.6°F15.9°C 60.0°F15.6°C 98% 1.0 mph NNE1.6 kmh NNE 6.0 mph9.7 kmh 29.93 in1013.5 mb 0.00 in0.0 mm 0.00 in0.0 mm 1.31 in33.3 mm
03:20 PM 60.6°F15.9°C 60.0°F15.6°C 98% Calm Calm 4.0 mph6.4 kmh 29.93 in1013.5 mb 0.00 in0.0 mm 0.00 in0.0 mm 1.31 in33.3 mm
03:18 PM 60.5°F15.8°C 59.9°F15.5°C 98% Calm Calm 4.0 mph6.4 kmh 29.93 in1013.5 mb 0.00 in0.0 mm 0.00 in0.0 mm 1.31 in33.3 mm
03:16 PM 60.5°F15.8°C 59.9°F15.5°C 98% Calm Calm 3.0 mph4.8 kmh 29.93 in1013.5 mb 0.00 in0.0 mm 0.00 in0.0 mm 1.31 in33.3 mm
03:14 PM 60.5°F15.8°C 59.9°F15.5°C 98% 2.0 mph NE3.2 kmh NE 3.0 mph4.8 kmh 29.93 in1013.5 mb 0.00 in0.0 mm 0.00 in0.0 mm 1.31 in33.3 mm
03:12 PM 60.4°F15.8°C 59.8°F15.4°C 98% 3.0 mph SE4.8 kmh SE 4.0 mph6.4 kmh 29.93 in1013.5 mb 0.00 in0.0 mm 0.00 in0.0 mm 1.31 in33.3 mm
03:10 PM 60.4°F15.8°C 59.8°F15.4°C 98% 3.0 mph NE4.8 kmh NE 3.0 mph4.8 kmh 29.93 in1013.5 mb 0.00 in0.0 mm 0.00 in0.0 mm 1.31 in33.3 mm
03:08 PM 60.4°F15.8°C 59.8°F15.4°C 98% 3.0 mph NE4.8 kmh NE 3.0 mph4.8 kmh 29.94 in1013.9 mb 0.00 in0.0 mm 0.00 in0.0 mm 1.31 in33.3 mm
03:06 PM 60.3°F15.7°C 59.7°F15.4°C 98% Calm Calm 7.0 mph11.3 kmh 29.94 in1013.9 mb 0.00 in0.0 mm 0.00 in0.0 mm 1.31 in33.3 mm
03:04 PM 60.3°F15.7°C 59.7°F15.4°C 98% Calm Calm 7.0 mph11.3 kmh 29.94 in1013.9 mb 0.00 in0.0 mm 0.00 in0.0 mm 1.31 in33.3 mm
03:02 PM 60.3°F15.7°C 60.0°F15.6°C 99% 2.0 mph NE3.2 kmh NE 7.0 mph11.3 kmh 29.94 in1013.9 mb 0.00 in0.0 mm 0.00 in0.0 mm 1.31 in33.3 mm
03:00 PM 60.2°F15.7°C 59.9°F15.5°C 99% 3.0 mph NE4.8 kmh NE 7.0 mph11.3 kmh 29.94 in1013.9 mb 0.00 in0.0 mm 0.00 in0.0 mm 1.31 in33.3 mm
02:58 PM 60.2°F15.7°C 59.9°F15.5°C 99% Calm Calm 7.0 mph11.3 kmh 29.94 in1013.9 mb 0.00 in0.0 mm 0.00 in0.0 mm 1.31 in33.3 mm
02:56 PM 60.3°F15.7°C 60.0°F15.6°C 99% 5.0 mph E8.0 kmh E 7.0 mph11.3 kmh 29.94 in1013.9 mb 0.00 in0.0 mm 0.00 in0.0 mm 1.31 in33.3 mm
02:54 PM 60.2°F15.7°C 59.9°F15.5°C 99% 1.0 mph NE1.6 kmh NE 4.0 mph6.4 kmh 29.94 in1013.9 mb 0.00 in0.0 mm 0.00 in0.0 mm 1.31 in33.3 mm
02:52 PM 60.2°F15.7°C 59.9°F15.5°C 99% Calm Calm 10.0 mph16.1 kmh 29.95 in1014.2 mb 0.00 in0.0 mm 0.00 in0.0 mm 1.31 in33.3 mm
02:50 PM 60.2°F15.7°C 59.9°F15.5°C 99% 2.0 mph ESE3.2 kmh ESE 10.0 mph16.1 kmh 29.95 in1014.2 mb 0.00 in0.0 mm 0.00 in0.0 mm 1.31 in33.3 mm
02:48 PM 60.0°F15.6°C 59.7°F15.4°C 99% 7.0 mph ENE11.3 kmh ENE 10.0 mph16.1 kmh 29.95 in1014.2 mb 0.00 in0.0 mm 0.00 in0.0 mm 1.31 in33.3 mm
02:46 PM 59.7°F15.4°C 59.4°F15.2°C 99% Calm Calm 6.0 mph9.7 kmh 29.95 in1014.2 mb 0.00 in0.0 mm 0.00 in0.0 mm 1.31 in33.3 mm
02:44 PM 59.7°F15.4°C 59.4°F15.2°C 99% 5.0 mph ENE8.0 kmh ENE 5.0 mph8.0 kmh 29.95 in1014.2 mb 0.00 in0.0 mm 0.00 in0.0 mm 1.31 in33.3 mm
02:42 PM 59.5°F15.3°C 59.2°F15.1°C 99% Calm Calm 10.0 mph16.1 kmh 29.95 in1014.2 mb 0.00 in0.0 mm 0.00 in0.0 mm 1.31 in33.3 mm
02:40 PM 59.5°F15.3°C 59.2°F15.1°C 99% 2.0 mph SE3.2 kmh SE 10.0 mph16.1 kmh 29.95 in1014.2 mb 0.00 in0.0 mm 0.00 in0.0 mm 1.31 in33.3 mm
02:38 PM 59.7°F15.4°C 59.4°F15.2°C 99% 3.0 mph E4.8 kmh E 3.0 mph4.8 kmh 29.95 in1014.2 mb 0.00 in0.0 mm 0.00 in0.0 mm 1.31 in33.3 mm
02:36 PM 59.6°F15.3°C 59.3°F15.2°C 99% 1.0 mph ENE1.6 kmh ENE 3.0 mph4.8 kmh 29.95 in1014.2 mb 0.00 in0.0 mm 0.00 in0.0 mm 1.31 in33.3 mm
02:34 PM 59.4°F15.2°C 59.1°F15.1°C 99% 2.0 mph ENE3.2 kmh ENE 2.0 mph3.2 kmh 29.95 in1014.2 mb 0.00 in0.0 mm 0.00 in0.0 mm 1.31 in33.3 mm
02:32 PM 59.1°F15.1°C 58.8°F14.9°C 99% Calm Calm 9.0 mph14.5 kmh 29.95 in1014.2 mb 0.00 in0.0 mm 0.00 in0.0 mm 1.31 in33.3 mm
02:30 PM 59.0°F15.0°C 58.7°F14.8°C 99% 6.0 mph NE9.7 kmh NE 8.0 mph12.9 kmh 29.95 in1014.2 mb 0.00 in0.0 mm 0.00 in0.0 mm 1.31 in33.3 mm
02:28 PM 58.9°F14.9°C 58.6°F14.8°C 99% Calm Calm 2.0 mph3.2 kmh 29.96 in1014.6 mb 0.00 in0.0 mm 0.00 in0.0 mm 1.31 in33.3 mm
02:26 PM 58.8°F14.9°C 58.5°F14.7°C 99% Calm Calm 6.0 mph9.7 kmh 29.96 in1014.6 mb 0.00 in0.0 mm 0.00 in0.0 mm 1.31 in33.3 mm
02:24 PM 58.7°F14.8°C 58.4°F14.7°C 99% 2.0 mph E3.2 kmh E 6.0 mph9.7 kmh 29.96 in1014.6 mb 0.00 in0.0 mm 0.00 in0.0 mm 1.31 in33.3 mm
02:22 PM 58.6°F14.8°C 58.3°F14.6°C 99% Calm Calm 4.0 mph6.4 kmh 29.96 in1014.6 mb 0.00 in0.0 mm 0.00 in0.0 mm 1.31 in33.3 mm
02:20 PM 58.5°F14.7°C 58.2°F14.6°C 99% 1.0 mph SE1.6 kmh SE 4.0 mph6.4 kmh 29.96 in1014.6 mb 0.00 in0.0 mm 0.00 in0.0 mm 1.31 in33.3 mm
02:18 PM 58.3°F14.6°C 58.0°F14.4°C 99% 4.0 mph E6.4 kmh E 4.0 mph6.4 kmh 29.96 in1014.6 mb 0.00 in0.0 mm 0.00 in0.0 mm 1.31 in33.3 mm
02:16 PM 58.2°F14.6°C 57.9°F14.4°C 99% 5.0 mph E8.0 kmh E 7.0 mph11.3 kmh 29.96 in1014.6 mb 0.00 in0.0 mm 0.00 in0.0 mm 1.31 in33.3 mm
02:14 PM 58.1°F14.5°C 57.8°F14.3°C 99% 1.0 mph ESE1.6 kmh ESE 7.0 mph11.3 kmh 29.96 in1014.6 mb 0.00 in0.0 mm 0.00 in0.0 mm 1.31 in33.3 mm
02:12 PM 58.1°F14.5°C 57.8°F14.3°C 99% 3.0 mph ENE4.8 kmh ENE 5.0 mph8.0 kmh 29.96 in1014.6 mb 0.00 in0.0 mm 0.00 in0.0 mm 1.31 in33.3 mm
02:10 PM 58.0°F14.4°C 57.7°F14.3°C 99% 3.0 mph NE4.8 kmh NE 5.0 mph8.0 kmh 29.96 in1014.6 mb 0.00 in0.0 mm 0.00 in0.0 mm 1.31 in33.3 mm
02:08 PM 57.9°F14.4°C 57.6°F14.2°C 99% 4.0 mph E6.4 kmh E 5.0 mph8.0 kmh 29.96 in1014.6 mb 0.00 in0.0 mm 0.00 in0.0 mm 1.31 in33.3 mm
02:06 PM 57.9°F14.4°C 57.6°F14.2°C 99% Calm Calm 5.0 mph8.0 kmh 29.96 in1014.6 mb 0.00 in0.0 mm 0.00 in0.0 mm 1.31 in33.3 mm
02:04 PM 57.8°F14.3°C 57.5°F14.2°C 99% 3.0 mph N4.8 kmh N 5.0 mph8.0 kmh 29.96 in1014.6 mb 0.00 in0.0 mm 0.00 in0.0 mm 1.31 in33.3 mm
02:02 PM 57.7°F14.3°C 57.4°F14.1°C 99% 1.0 mph NE1.6 kmh NE 5.0 mph8.0 kmh 29.96 in1014.6 mb 0.01 in0.3 mm 0.00 in0.0 mm 1.31 in33.3 mm
02:00 PM 57.7°F14.3°C 57.4°F14.1°C 99% 1.0 mph SE1.6 kmh SE 5.0 mph8.0 kmh 29.97 in1014.9 mb 0.01 in0.3 mm 0.00 in0.0 mm 1.31 in33.3 mm
01:58 PM 57.7°F14.3°C 57.4°F14.1°C 99% 5.0 mph ESE8.0 kmh ESE 5.0 mph8.0 kmh 29.97 in1014.9 mb 0.01 in0.3 mm 0.00 in0.0 mm 1.31 in33.3 mm
01:56 PM 57.6°F14.2°C 57.3°F14.1°C 99% Calm Calm 9.0 mph14.5 kmh 29.97 in1014.9 mb 0.04 in1.0 mm 0.00 in0.0 mm 1.31 in33.3 mm
01:54 PM 57.5°F14.2°C 57.2°F14.0°C 99% Calm Calm 9.0 mph14.5 kmh 29.96 in1014.6 mb 0.04 in1.0 mm 0.00 in0.0 mm 1.31 in33.3 mm
01:52 PM 57.4°F14.1°C 57.1°F13.9°C 99% 4.0 mph SE6.4 kmh SE 7.0 mph11.3 kmh 29.96 in1014.6 mb 0.04 in1.0 mm 0.00 in0.0 mm 1.31 in33.3 mm
01:50 PM 57.5°F14.2°C 57.2°F14.0°C 99% 4.0 mph NE6.4 kmh NE 7.0 mph11.3 kmh 29.97 in1014.9 mb 0.04 in1.0 mm 0.00 in0.0 mm 1.31 in33.3 mm
01:48 PM 57.4°F14.1°C 57.1°F13.9°C 99% 1.0 mph SE1.6 kmh SE 5.0 mph8.0 kmh 29.97 in1014.9 mb 0.04 in1.0 mm 0.00 in0.0 mm 1.31 in33.3 mm
01:46 PM 57.4°F14.1°C 57.1°F13.9°C 99% 2.0 mph ESE3.2 kmh ESE 7.0 mph11.3 kmh 29.97 in1014.9 mb 0.04 in1.0 mm 0.00 in0.0 mm 1.31 in33.3 mm
01:44 PM 57.4°F14.1°C 57.1°F13.9°C 99% 3.0 mph E4.8 kmh E 7.0 mph11.3 kmh 29.97 in1014.9 mb 0.04 in1.0 mm 0.00 in0.0 mm 1.31 in33.3 mm
01:42 PM 57.5°F14.2°C 57.2°F14.0°C 99% 2.0 mph NE3.2 kmh NE 7.0 mph11.3 kmh 29.97 in1014.9 mb 0.05 in1.3 mm 0.00 in0.0 mm 1.31 in33.3 mm
01:40 PM 57.5°F14.2°C 57.2°F14.0°C 99% 2.0 mph ENE3.2 kmh ENE 7.0 mph11.3 kmh 29.97 in1014.9 mb 0.05 in1.3 mm 0.00 in0.0 mm 1.31 in33.3 mm
01:38 PM 57.5°F14.2°C 57.2°F14.0°C 99% 2.0 mph E3.2 kmh E 7.0 mph11.3 kmh 29.97 in1014.9 mb 0.05 in1.3 mm 0.00 in0.0 mm 1.31 in33.3 mm
01:36 PM 57.6°F14.2°C 57.3°F14.1°C 99% Calm Calm 4.0 mph6.4 kmh 29.97 in1014.9 mb 0.05 in1.3 mm 0.00 in0.0 mm 1.31 in33.3 mm
01:34 PM 57.5°F14.2°C 57.2°F14.0°C 99% 2.0 mph S3.2 kmh S 2.0 mph3.2 kmh 29.97 in1014.9 mb 0.05 in1.3 mm 0.00 in0.0 mm 1.31 in33.3 mm
01:32 PM 57.5°F14.2°C 57.2°F14.0°C 99% Calm Calm 6.0 mph9.7 kmh 29.97 in1014.9 mb 0.05 in1.3 mm 0.00 in0.0 mm 1.31 in33.3 mm
01:30 PM 57.4°F14.1°C 57.1°F13.9°C 99% 1.0 mph E1.6 kmh E 6.0 mph9.7 kmh 29.97 in1014.9 mb 0.05 in1.3 mm 0.00 in0.0 mm 1.31 in33.3 mm
01:28 PM 57.3°F14.1°C 57.0°F13.9°C 99% 1.0 mph ENE1.6 kmh ENE 4.0 mph6.4 kmh 29.97 in1014.9 mb 0.05 in1.3 mm 0.00 in0.0 mm 1.31 in33.3 mm
01:26 PM 57.2°F14.0°C 56.9°F13.8°C 99% 2.0 mph SSE3.2 kmh SSE 8.0 mph12.9 kmh 29.97 in1014.9 mb 0.05 in1.3 mm 0.00 in0.0 mm 1.31 in33.3 mm
01:24 PM 57.2°F14.0°C 56.9°F13.8°C 99% 7.0 mph ENE11.3 kmh ENE 8.0 mph12.9 kmh 29.98 in1015.2 mb 0.05 in1.3 mm 0.00 in0.0 mm 1.31 in33.3 mm
01:22 PM 57.3°F14.1°C 57.0°F13.9°C 99% 2.0 mph ESE3.2 kmh ESE 6.0 mph9.7 kmh 29.98 in1015.2 mb 0.06 in1.5 mm 0.00 in0.0 mm 1.31 in33.3 mm
01:20 PM 57.4°F14.1°C 57.1°F13.9°C 99% 6.0 mph ENE9.7 kmh ENE 6.0 mph9.7 kmh 29.98 in1015.2 mb 0.06 in1.5 mm 0.00 in0.0 mm 1.31 in33.3 mm
01:18 PM 57.2°F14.0°C 56.9°F13.8°C 99% 1.0 mph SE1.6 kmh SE 2.0 mph3.2 kmh 29.98 in1015.2 mb 0.06 in1.5 mm 0.00 in0.0 mm 1.31 in33.3 mm
01:16 PM 57.1°F13.9°C 56.8°F13.8°C 99% Calm Calm 5.0 mph8.0 kmh 29.98 in1015.2 mb 0.06 in1.5 mm 0.00 in0.0 mm 1.31 in33.3 mm
01:14 PM 57.1°F13.9°C 56.8°F13.8°C 99% Calm Calm 2.0 mph3.2 kmh 29.98 in1015.2 mb 0.06 in1.5 mm 0.00 in0.0 mm 1.31 in33.3 mm
01:12 PM 57.2°F14.0°C 56.9°F13.8°C 99% 1.0 mph E1.6 kmh E 7.0 mph11.3 kmh 29.98 in1015.2 mb 0.06 in1.5 mm 0.00 in0.0 mm 1.31 in33.3 mm
01:10 PM 57.2°F14.0°C 56.9°F13.8°C 99% 1.0 mph E1.6 kmh E 5.0 mph8.0 kmh 29.98 in1015.2 mb 0.06 in1.5 mm 0.00 in0.0 mm 1.31 in33.3 mm
01:08 PM 57.1°F13.9°C 56.8°F13.8°C 99% 5.0 mph NE8.0 kmh NE 5.0 mph8.0 kmh 29.98 in1015.2 mb 0.06 in1.5 mm 0.00 in0.0 mm 1.31 in33.3 mm
01:06 PM 57.0°F13.9°C 56.7°F13.7°C 99% 4.0 mph NNE6.4 kmh NNE 7.0 mph11.3 kmh 29.99 in1015.6 mb 0.06 in1.5 mm 0.00 in0.0 mm 1.31 in33.3 mm
01:04 PM 57.0°F13.9°C 56.7°F13.7°C 99% 1.0 mph ESE1.6 kmh ESE 6.0 mph9.7 kmh 29.99 in1015.6 mb 0.06 in1.5 mm 0.00 in0.0 mm 1.31 in33.3 mm
01:02 PM 57.1°F13.9°C 56.8°F13.8°C 99% 3.0 mph NNE4.8 kmh NNE 9.0 mph14.5 kmh 29.99 in1015.6 mb 0.07 in1.8 mm 0.00 in0.0 mm 1.31 in33.3 mm
01:00 PM 57.1°F13.9°C 56.8°F13.8°C 99% 3.0 mph E4.8 kmh E 4.0 mph6.4 kmh 29.99 in1015.6 mb 0.07 in1.8 mm 0.01 in0.3 mm 1.31 in33.3 mm
12:58 PM 57.0°F13.9°C 56.7°F13.7°C 99% 1.0 mph ENE1.6 kmh ENE 4.0 mph6.4 kmh 29.99 in1015.6 mb 0.06 in1.5 mm 0.00 in0.0 mm 1.30 in33.0 mm
12:56 PM 56.9°F13.8°C 56.6°F13.7°C 99% Calm Calm 4.0 mph6.4 kmh 29.99 in1015.6 mb 0.06 in1.5 mm 0.60 in15.2 mm 1.30 in33.0 mm
12:54 PM 56.9°F13.8°C 56.6°F13.7°C 99% Calm Calm -- 29.99 in1015.6 mb 0.04 in1.0 mm 0.00 in0.0 mm 1.28 in32.5 mm
12:52 PM 56.8°F13.8°C 56.5°F13.6°C 99% Calm Calm 9.0 mph14.5 kmh 29.99 in1015.6 mb 0.04 in1.0 mm 0.00 in0.0 mm 1.28 in32.5 mm
12:50 PM 56.8°F13.8°C 56.5°F13.6°C 99% Calm Calm 9.0 mph14.5 kmh 29.99 in1015.6 mb 0.04 in1.0 mm 0.00 in0.0 mm 1.28 in32.5 mm
12:48 PM 56.9°F13.8°C 56.6°F13.7°C 99% 1.0 mph SE1.6 kmh SE 6.0 mph9.7 kmh 29.99 in1015.6 mb 0.04 in1.0 mm 0.00 in0.0 mm 1.28 in32.5 mm
12:46 PM 57.0°F13.9°C 56.7°F13.7°C 99% 3.0 mph NE4.8 kmh NE 4.0 mph6.4 kmh 29.99 in1015.6 mb 0.05 in1.3 mm 0.00 in0.0 mm 1.28 in32.5 mm
12:44 PM 56.8°F13.8°C 56.5°F13.6°C 99% Calm Calm 4.0 mph6.4 kmh 29.99 in1015.6 mb 0.05 in1.3 mm 0.00 in0.0 mm 1.28 in32.5 mm
12:42 PM 56.6°F13.7°C 56.3°F13.5°C 99% Calm Calm 7.0 mph11.3 kmh 29.99 in1015.6 mb 0.06 in1.5 mm 0.30 in7.6 mm 1.28 in32.5 mm
12:40 PM 56.6°F13.7°C 56.3°F13.5°C 99% 1.0 mph SE1.6 kmh SE 7.0 mph11.3 kmh 29.99 in1015.6 mb 0.05 in1.3 mm 0.00 in0.0 mm 1.27 in32.3 mm
12:38 PM 56.7°F13.7°C 56.4°F13.6°C 99% 4.0 mph N6.4 kmh N 4.0 mph6.4 kmh 29.99 in1015.6 mb 0.05 in1.3 mm 0.00 in0.0 mm 1.27 in32.3 mm
12:36 PM 56.6°F13.7°C 56.0°F13.3°C 98% Calm Calm 7.0 mph11.3 kmh 29.99 in1015.6 mb 0.05 in1.3 mm 0.00 in0.0 mm 1.27 in32.3 mm
12:34 PM 56.6°F13.7°C 56.3°F13.5°C 99% 1.0 mph E1.6 kmh E 7.0 mph11.3 kmh 29.99 in1015.6 mb 0.05 in1.3 mm 0.00 in0.0 mm 1.27 in32.3 mm
12:32 PM 56.6°F13.7°C 56.3°F13.5°C 99% Calm Calm 9.0 mph14.5 kmh 29.99 in1015.6 mb 0.05 in1.3 mm 0.00 in0.0 mm 1.27 in32.3 mm
12:30 PM 56.6°F13.7°C 56.3°F13.5°C 99% 1.0 mph ENE1.6 kmh ENE 9.0 mph14.5 kmh 29.99 in1015.6 mb 0.05 in1.3 mm 0.00 in0.0 mm 1.27 in32.3 mm
12:28 PM 56.7°F13.7°C 56.4°F13.6°C 99% 3.0 mph E4.8 kmh E 9.0 mph14.5 kmh 29.99 in1015.6 mb 0.05 in1.3 mm 0.00 in0.0 mm 1.27 in32.3 mm
12:26 PM 56.7°F13.7°C 56.4°F13.6°C 99% 1.0 mph SSE1.6 kmh SSE 7.0 mph11.3 kmh 29.99 in1015.6 mb 0.05 in1.3 mm 0.00 in0.0 mm 1.27 in32.3 mm
12:24 PM 56.6°F13.7°C 56.0°F13.3°C 98% 3.0 mph ENE4.8 kmh ENE 5.0 mph8.0 kmh 29.99 in1015.6 mb 0.05 in1.3 mm 0.00 in0.0 mm 1.27 in32.3 mm
12:22 PM 56.6°F13.7°C 56.0°F13.3°C 98% 3.0 mph NE4.8 kmh NE 6.0 mph9.7 kmh 29.99 in1015.6 mb 0.05 in1.3 mm 0.00 in0.0 mm 1.27 in32.3 mm
12:20 PM 56.5°F13.6°C 55.9°F13.3°C 98% 2.0 mph E3.2 kmh E 4.0 mph6.4 kmh 29.99 in1015.6 mb 0.05 in1.3 mm 0.30 in7.6 mm 1.27 in32.3 mm
12:18 PM 56.5°F13.6°C 55.9°F13.3°C 98% Calm Calm 2.0 mph3.2 kmh 29.99 in1015.6 mb 0.04 in1.0 mm 0.00 in0.0 mm 1.26 in32.0 mm
12:16 PM 56.5°F13.6°C 55.9°F13.3°C 98% 4.0 mph N6.4 kmh N 6.0 mph9.7 kmh 29.99 in1015.6 mb 0.04 in1.0 mm 0.00 in0.0 mm 1.26 in32.0 mm
12:14 PM 56.5°F13.6°C 55.9°F13.3°C 98% 3.0 mph SE4.8 kmh SE 6.0 mph9.7 kmh 30.00 in1015.9 mb 0.04 in1.0 mm 0.00 in0.0 mm 1.26 in32.0 mm
12:12 PM 56.5°F13.6°C 55.9°F13.3°C 98% 2.0 mph SE3.2 kmh SE 6.0 mph9.7 kmh 30.00 in1015.9 mb 0.04 in1.0 mm 0.00 in0.0 mm 1.26 in32.0 mm
12:10 PM 56.5°F13.6°C 55.9°F13.3°C 98% Calm Calm 6.0 mph9.7 kmh 30.00 in1015.9 mb 0.04 in1.0 mm 0.00 in0.0 mm 1.26 in32.0 mm
12:08 PM 56.5°F13.6°C 55.9°F13.3°C 98% 2.0 mph NNE3.2 kmh NNE 3.0 mph4.8 kmh 30.00 in1015.9 mb 0.04 in1.0 mm 0.00 in0.0 mm 1.26 in32.0 mm
12:06 PM 56.5°F13.6°C 55.9°F13.3°C 98% 1.0 mph NE1.6 kmh NE 4.0 mph6.4 kmh 30.00 in1015.9 mb 0.04 in1.0 mm 0.00 in0.0 mm 1.26 in32.0 mm
12:04 PM 56.5°F13.6°C 55.9°F13.3°C 98% 1.0 mph E1.6 kmh E 4.0 mph6.4 kmh 30.00 in1015.9 mb 0.04 in1.0 mm 0.30 in7.6 mm 1.26 in32.0 mm
12:02 PM 56.4°F13.6°C 55.9°F13.3°C 98% 2.0 mph NE3.2 kmh NE 7.0 mph11.3 kmh 30.00 in1015.9 mb 0.03 in0.8 mm 0.00 in0.0 mm 1.25 in31.8 mm
12:00 PM 56.5°F13.6°C 55.9°F13.3°C 98% 4.0 mph E6.4 kmh E 7.0 mph11.3 kmh 30.00 in1015.9 mb 0.03 in0.8 mm 0.00 in0.0 mm 1.25 in31.8 mm
11:58 AM 56.6°F13.7°C 56.0°F13.3°C 98% 1.0 mph ENE1.6 kmh ENE 7.0 mph11.3 kmh 30.00 in1015.9 mb 0.03 in0.8 mm 0.00 in0.0 mm 1.25 in31.8 mm
11:56 AM 56.6°F13.7°C 56.0°F13.3°C 98% 1.0 mph NE1.6 kmh NE 8.0 mph12.9 kmh 30.00 in1015.9 mb 0.03 in0.8 mm 0.00 in0.0 mm 1.25 in31.8 mm
11:54 AM 56.6°F13.7°C 56.0°F13.3°C 98% 4.0 mph SW6.4 kmh SW 8.0 mph12.9 kmh 30.00 in1015.9 mb 0.03 in0.8 mm 0.30 in7.6 mm 1.25 in31.8 mm
11:52 AM 56.7°F13.7°C 56.1°F13.4°C 98% Calm Calm 7.0 mph11.3 kmh 30.00 in1015.9 mb 0.02 in0.5 mm 0.00 in0.0 mm 1.24 in31.5 mm
11:50 AM 56.7°F13.7°C 56.1°F13.4°C 98% 7.0 mph SE11.3 kmh SE 7.0 mph11.3 kmh 30.00 in1015.9 mb 0.02 in0.5 mm 0.00 in0.0 mm 1.24 in31.5 mm
11:48 AM 56.7°F13.7°C 56.1°F13.4°C 98% 5.0 mph SE8.0 kmh SE 5.0 mph8.0 kmh 30.00 in1015.9 mb 0.02 in0.5 mm 0.00 in0.0 mm 1.24 in31.5 mm
11:46 AM 56.7°F13.7°C 56.1°F13.4°C 98% 2.0 mph SE3.2 kmh SE 11.0 mph17.7 kmh 30.00 in1015.9 mb 0.02 in0.5 mm 0.30 in7.6 mm 1.24 in31.5 mm
11:44 AM 56.8°F13.8°C 56.2°F13.4°C 98% 4.0 mph ESE6.4 kmh ESE 10.0 mph16.1 kmh 30.00 in1015.9 mb 0.01 in0.3 mm 0.00 in0.0 mm 1.23 in31.2 mm
11:42 AM 56.8°F13.8°C 56.2°F13.4°C 98% 3.0 mph E4.8 kmh E 8.0 mph12.9 kmh 30.00 in1015.9 mb 0.01 in0.3 mm 0.00 in0.0 mm 1.23 in31.2 mm
11:40 AM 56.9°F13.8°C 56.3°F13.5°C 98% 4.0 mph SE6.4 kmh SE 5.0 mph8.0 kmh 30.00 in1015.9 mb 0.01 in0.3 mm 0.30 in7.6 mm 1.23 in31.2 mm
11:38 AM 56.9°F13.8°C 56.3°F13.5°C 98% Calm Calm 5.0 mph8.0 kmh 30.00 in1015.9 mb 0.00 in0.0 mm 0.00 in0.0 mm 1.22 in31.0 mm
11:36 AM 56.9°F13.8°C 56.3°F13.5°C 98% 4.0 mph N6.4 kmh N 14.0 mph22.5 kmh 30.00 in1015.9 mb 0.00 in0.0 mm 0.00 in0.0 mm 1.22 in31.0 mm
11:34 AM 57.0°F13.9°C 56.4°F13.6°C 98% 5.0 mph E8.0 kmh E 9.0 mph14.5 kmh 30.00 in1015.9 mb 0.00 in0.0 mm 0.00 in0.0 mm 1.22 in31.0 mm
11:32 AM 57.1°F13.9°C 56.5°F13.6°C 98% 5.0 mph ENE8.0 kmh ENE 8.0 mph12.9 kmh 30.00 in1015.9 mb 0.00 in0.0 mm 0.00 in0.0 mm 1.22 in31.0 mm
11:30 AM 57.2°F14.0°C 56.6°F13.7°C 98% 3.0 mph ESE4.8 kmh ESE 8.0 mph12.9 kmh 30.00 in1015.9 mb 0.00 in0.0 mm 0.00 in0.0 mm 1.22 in31.0 mm
11:28 AM 57.3°F14.1°C 56.7°F13.7°C 98% 1.0 mph SE1.6 kmh SE 3.0 mph4.8 kmh 30.00 in1015.9 mb 0.00 in0.0 mm 0.00 in0.0 mm 1.22 in31.0 mm
11:26 AM 57.2°F14.0°C 56.6°F13.7°C 98% 2.0 mph E3.2 kmh E 6.0 mph9.7 kmh 30.00 in1015.9 mb 0.00 in0.0 mm 0.00 in0.0 mm 1.22 in31.0 mm
11:24 AM 57.2°F14.0°C 56.6°F13.7°C 98% 2.0 mph NW3.2 kmh NW 6.0 mph9.7 kmh 30.00 in1015.9 mb 0.00 in0.0 mm 0.00 in0.0 mm 1.22 in31.0 mm
11:22 AM 57.2°F14.0°C 56.6°F13.7°C 98% 2.0 mph SE3.2 kmh SE 9.0 mph14.5 kmh 30.01 in1016.3 mb 0.00 in0.0 mm 0.00 in0.0 mm 1.22 in31.0 mm
11:20 AM 57.2°F14.0°C 56.6°F13.7°C 98% 2.0 mph S3.2 kmh S 9.0 mph14.5 kmh 30.00 in1015.9 mb 0.00 in0.0 mm 0.00 in0.0 mm 1.22 in31.0 mm
11:18 AM 57.3°F14.1°C 56.7°F13.7°C 98% 6.0 mph ENE9.7 kmh ENE 6.0 mph9.7 kmh 30.00 in1015.9 mb 0.00 in0.0 mm 0.00 in0.0 mm 1.22 in31.0 mm
11:16 AM 57.4°F14.1°C 56.8°F13.8°C 98% 4.0 mph WSW6.4 kmh WSW 16.0 mph25.7 kmh 30.00 in1015.9 mb 0.00 in0.0 mm 0.00 in0.0 mm 1.22 in31.0 mm
11:14 AM 57.4°F14.1°C 56.8°F13.8°C 98% 5.0 mph E8.0 kmh E 16.0 mph25.7 kmh 30.00 in1015.9 mb 0.00 in0.0 mm 0.00 in0.0 mm 1.22 in31.0 mm
11:12 AM 57.5°F14.2°C 56.9°F13.8°C 98% 4.0 mph ESE6.4 kmh ESE 10.0 mph16.1 kmh 30.00 in1015.9 mb 0.00 in0.0 mm 0.00 in0.0 mm 1.22 in31.0 mm
11:10 AM 57.6°F14.2°C 57.0°F13.9°C 98% 6.0 mph NE9.7 kmh NE 10.0 mph16.1 kmh 30.00 in1015.9 mb 0.00 in0.0 mm 0.00 in0.0 mm 1.22 in31.0 mm
11:08 AM 57.7°F14.3°C 57.1°F13.9°C 98% 4.0 mph E6.4 kmh E 10.0 mph16.1 kmh 30.00 in1015.9 mb 0.00 in0.0 mm 0.00 in0.0 mm 1.22 in31.0 mm
11:06 AM 58.0°F14.4°C 57.4°F14.1°C 98% 1.0 mph SE1.6 kmh SE 10.0 mph16.1 kmh 30.00 in1015.9 mb 0.00 in0.0 mm 0.00 in0.0 mm 1.22 in31.0 mm
11:04 AM 58.1°F14.5°C 57.5°F14.2°C 98% 3.0 mph N4.8 kmh N 10.0 mph16.1 kmh 30.00 in1015.9 mb 0.00 in0.0 mm 0.00 in0.0 mm 1.22 in31.0 mm
11:02 AM 58.1°F14.5°C 57.5°F14.2°C 98% 4.0 mph NE6.4 kmh NE 8.0 mph12.9 kmh 30.00 in1015.9 mb 0.00 in0.0 mm 0.00 in0.0 mm 1.22 in31.0 mm
11:00 AM 58.2°F14.6°C 57.6°F14.2°C 98% 4.0 mph NNE6.4 kmh NNE 7.0 mph11.3 kmh 30.00 in1015.9 mb 0.00 in0.0 mm 0.00 in0.0 mm 1.22 in31.0 mm
10:58 AM 58.3°F14.6°C 57.7°F14.3°C 98% 5.0 mph ESE8.0 kmh ESE 6.0 mph9.7 kmh 30.00 in1015.9 mb 0.00 in0.0 mm 0.00 in0.0 mm 1.22 in31.0 mm
10:56 AM 58.3°F14.6°C 57.7°F14.3°C 98% Calm Calm 7.0 mph11.3 kmh 30.00 in1015.9 mb 0.00 in0.0 mm 0.00 in0.0 mm 1.22 in31.0 mm
10:54 AM 58.2°F14.6°C 57.6°F14.2°C 98% 1.0 mph SE1.6 kmh SE 7.0 mph11.3 kmh 30.00 in1015.9 mb 0.00 in0.0 mm 0.00 in0.0 mm 1.22 in31.0 mm
10:52 AM 58.3°F14.6°C 57.7°F14.3°C 98% 10.0 mph ESE16.1 kmh ESE 11.0 mph17.7 kmh 30.00 in1015.9 mb 0.00 in0.0 mm 0.00 in0.0 mm 1.22 in31.0 mm
10:50 AM 58.4°F14.7°C 58.1°F14.5°C 99% 2.0 mph SE3.2 kmh SE 11.0 mph17.7 kmh 30.00 in1015.9 mb 0.00 in0.0 mm 0.00 in0.0 mm 1.22 in31.0 mm
10:48 AM 58.4°F14.7°C 58.1°F14.5°C 99% 2.0 mph SE3.2 kmh SE 5.0 mph8.0 kmh 30.00 in1015.9 mb 0.00 in0.0 mm 0.00 in0.0 mm 1.22 in31.0 mm
10:46 AM 58.4°F14.7°C 58.1°F14.5°C 99% Calm Calm 12.0 mph19.3 kmh 30.00 in1015.9 mb 0.00 in0.0 mm 0.00 in0.0 mm 1.22 in31.0 mm
10:44 AM 58.3°F14.6°C 58.0°F14.4°C 99% 3.0 mph SE4.8 kmh SE 12.0 mph19.3 kmh 30.00 in1015.9 mb 0.00 in0.0 mm 0.00 in0.0 mm 1.22 in31.0 mm
10:42 AM 58.4°F14.7°C 58.1°F14.5°C 99% 4.0 mph NE6.4 kmh NE 14.0 mph22.5 kmh 30.00 in1015.9 mb 0.00 in0.0 mm 0.00 in0.0 mm 1.22 in31.0 mm
10:40 AM 58.5°F14.7°C 58.2°F14.6°C 99% 5.0 mph E8.0 kmh E 9.0 mph14.5 kmh 30.00 in1015.9 mb 0.00 in0.0 mm 0.00 in0.0 mm 1.22 in31.0 mm
10:38 AM 58.5°F14.7°C 58.2°F14.6°C 99% 8.0 mph E12.9 kmh E 9.0 mph14.5 kmh 30.00 in1015.9 mb 0.00 in0.0 mm 0.00 in0.0 mm 1.22 in31.0 mm
10:36 AM 58.5°F14.7°C 58.2°F14.6°C 99% 8.0 mph SE12.9 kmh SE 8.0 mph12.9 kmh 30.00 in1015.9 mb 0.00 in0.0 mm 0.00 in0.0 mm 1.22 in31.0 mm
10:34 AM 58.6°F14.8°C 58.3°F14.6°C 99% 5.0 mph N8.0 kmh N 8.0 mph12.9 kmh 30.00 in1015.9 mb 0.00 in0.0 mm 0.00 in0.0 mm 1.22 in31.0 mm
10:32 AM 58.7°F14.8°C 58.4°F14.7°C 99% 3.0 mph NW4.8 kmh NW 10.0 mph16.1 kmh 30.00 in1015.9 mb 0.00 in0.0 mm 0.00 in0.0 mm 1.22 in31.0 mm
10:30 AM 58.6°F14.8°C 58.3°F14.6°C 99% 2.0 mph NNE3.2 kmh NNE 10.0 mph16.1 kmh 30.01 in1016.3 mb 0.00 in0.0 mm 0.00 in0.0 mm 1.22 in31.0 mm
10:28 AM 58.6°F14.8°C 58.3°F14.6°C 99% 1.0 mph S1.6 kmh S 4.0 mph6.4 kmh 30.01 in1016.3 mb 0.00 in0.0 mm 0.00 in0.0 mm 1.22 in31.0 mm
10:26 AM 58.5°F14.7°C 58.2°F14.6°C 99% 3.0 mph ESE4.8 kmh ESE 9.0 mph14.5 kmh 30.00 in1015.9 mb 0.00 in0.0 mm 0.00 in0.0 mm 1.22 in31.0 mm
10:24 AM 58.4°F14.7°C 58.1°F14.5°C 99% 1.0 mph SE1.6 kmh SE 9.0 mph14.5 kmh 30.00 in1015.9 mb 0.00 in0.0 mm 0.00 in0.0 mm 1.22 in31.0 mm
10:22 AM 58.4°F14.7°C 58.1°F14.5°C 99% 4.0 mph SE6.4 kmh SE 13.0 mph20.9 kmh 30.01 in1016.3 mb 0.00 in0.0 mm 0.00 in0.0 mm 1.22 in31.0 mm
10:20 AM 58.5°F14.7°C 58.2°F14.6°C 99% 2.0 mph SE3.2 kmh SE 11.0 mph17.7 kmh 30.01 in1016.3 mb 0.00 in0.0 mm 0.00 in0.0 mm 1.22 in31.0 mm
10:18 AM 58.5°F14.7°C 58.2°F14.6°C 99% 9.0 mph E14.5 kmh E 9.0 mph14.5 kmh 30.01 in1016.3 mb 0.00 in0.0 mm 0.00 in0.0 mm 1.22 in31.0 mm
10:16 AM 58.5°F14.7°C 58.2°F14.6°C 99% 2.0 mph E3.2 kmh E 7.0 mph11.3 kmh 30.01 in1016.3 mb 0.00 in0.0 mm 0.00 in0.0 mm 1.22 in31.0 mm
10:14 AM 58.5°F14.7°C 58.2°F14.6°C 99% Calm Calm 7.0 mph11.3 kmh 30.01 in1016.3 mb 0.00 in0.0 mm 0.00 in0.0 mm 1.22 in31.0 mm
10:12 AM 58.5°F14.7°C 58.2°F14.6°C 99% 2.0 mph NE3.2 kmh NE 9.0 mph14.5 kmh 30.01 in1016.3 mb 0.00 in0.0 mm 0.00 in0.0 mm 1.22 in31.0 mm
10:10 AM 58.6°F14.8°C 58.3°F14.6°C 99% 3.0 mph SE4.8 kmh SE 9.0 mph14.5 kmh 30.01 in1016.3 mb 0.00 in0.0 mm 0.00 in0.0 mm 1.22 in31.0 mm
10:08 AM 58.7°F14.8°C 58.4°F14.7°C 99% 1.0 mph ENE1.6 kmh ENE 7.0 mph11.3 kmh 30.01 in1016.3 mb 0.00 in0.0 mm 0.00 in0.0 mm 1.22 in31.0 mm
10:06 AM 58.9°F14.9°C 58.6°F14.8°C 99% 2.0 mph SE3.2 kmh SE 13.0 mph20.9 kmh 30.01 in1016.3 mb 0.00 in0.0 mm 0.00 in0.0 mm 1.22 in31.0 mm
10:04 AM 59.0°F15.0°C 58.7°F14.8°C 99% Calm Calm 2.0 mph3.2 kmh 30.01 in1016.3 mb 0.00 in0.0 mm 0.00 in0.0 mm 1.22 in31.0 mm
10:02 AM 58.9°F14.9°C 58.6°F14.8°C 99% 1.0 mph ESE1.6 kmh ESE 12.0 mph19.3 kmh 30.01 in1016.3 mb 0.00 in0.0 mm 0.00 in0.0 mm 1.22 in31.0 mm
10:00 AM 58.9°F14.9°C 58.6°F14.8°C 99% 2.0 mph NE3.2 kmh NE 12.0 mph19.3 kmh 30.01 in1016.3 mb 0.00 in0.0 mm 0.00 in0.0 mm 1.22 in31.0 mm
09:58 AM 58.9°F14.9°C 58.6°F14.8°C 99% Calm Calm 3.0 mph4.8 kmh 30.00 in1015.9 mb 0.00 in0.0 mm 0.00 in0.0 mm 1.22 in31.0 mm
09:56 AM 58.9°F14.9°C 58.6°F14.8°C 99% Calm Calm 6.0 mph9.7 kmh 30.01 in1016.3 mb 0.00 in0.0 mm 0.00 in0.0 mm 1.22 in31.0 mm
09:54 AM 58.8°F14.9°C 58.5°F14.7°C 99% Calm Calm 6.0 mph9.7 kmh 30.01 in1016.3 mb 0.00 in0.0 mm 0.00 in0.0 mm 1.22 in31.0 mm
09:52 AM 58.8°F14.9°C 58.5°F14.7°C 99% Calm Calm 11.0 mph17.7 kmh 30.00 in1015.9 mb 0.00 in0.0 mm 0.00 in0.0 mm 1.22 in31.0 mm
09:50 AM 58.8°F14.9°C 58.5°F14.7°C 99% 2.0 mph SE3.2 kmh SE 11.0 mph17.7 kmh 30.00 in1015.9 mb 0.00 in0.0 mm 0.00 in0.0 mm 1.22 in31.0 mm
09:48 AM 58.8°F14.9°C 58.5°F14.7°C 99% 5.0 mph E8.0 kmh E 5.0 mph8.0 kmh 30.00 in1015.9 mb 0.00 in0.0 mm 0.00 in0.0 mm 1.22 in31.0 mm
09:46 AM 58.8°F14.9°C 58.5°F14.7°C 99% 4.0 mph E6.4 kmh E 11.0 mph17.7 kmh 30.00 in1015.9 mb 0.00 in0.0 mm 0.00 in0.0 mm 1.22 in31.0 mm
09:44 AM 58.8°F14.9°C 58.5°F14.7°C 99% 2.0 mph SSE3.2 kmh SSE 11.0 mph17.7 kmh 30.00 in1015.9 mb 0.00 in0.0 mm 0.00 in0.0 mm 1.22 in31.0 mm
09:42 AM 58.8°F14.9°C 58.5°F14.7°C 99% 1.0 mph SE1.6 kmh SE 9.0 mph14.5 kmh 30.00 in1015.9 mb 0.00 in0.0 mm 0.00 in0.0 mm 1.22 in31.0 mm
09:40 AM 58.8°F14.9°C 58.5°F14.7°C 99% Calm Calm 9.0 mph14.5 kmh 30.00 in1015.9 mb 0.00 in0.0 mm 0.00 in0.0 mm 1.22 in31.0 mm
09:38 AM 58.8°F14.9°C 58.5°F14.7°C 99% 1.0 mph ESE1.6 kmh ESE 9.0 mph14.5 kmh 30.00 in1015.9 mb 0.00 in0.0 mm 0.00 in0.0 mm 1.22 in31.0 mm
09:36 AM 58.9°F14.9°C 58.6°F14.8°C 99% 8.0 mph E12.9 kmh E 11.0 mph17.7 kmh 30.00 in1015.9 mb 0.00 in0.0 mm 0.00 in0.0 mm 1.22 in31.0 mm
09:34 AM 58.9°F14.9°C 58.6°F14.8°C 99% 3.0 mph NE4.8 kmh NE 7.0 mph11.3 kmh 30.00 in1015.9 mb 0.00 in0.0 mm 0.00 in0.0 mm 1.22 in31.0 mm
09:32 AM 58.9°F14.9°C 58.6°F14.8°C 99% 1.0 mph NNW1.6 kmh NNW 7.0 mph11.3 kmh 30.00 in1015.9 mb 0.00 in0.0 mm 0.00 in0.0 mm 1.22 in31.0 mm
09:30 AM 58.9°F14.9°C 58.6°F14.8°C 99% 3.0 mph SE4.8 kmh SE 7.0 mph11.3 kmh 30.00 in1015.9 mb 0.00 in0.0 mm 0.00 in0.0 mm 1.22 in31.0 mm
09:28 AM 59.0°F15.0°C 58.7°F14.8°C 99% 3.0 mph E4.8 kmh E 7.0 mph11.3 kmh 30.00 in1015.9 mb 0.00 in0.0 mm 0.00 in0.0 mm 1.22 in31.0 mm
09:26 AM 59.0°F15.0°C 58.7°F14.8°C 99% 2.0 mph WSW3.2 kmh WSW 7.0 mph11.3 kmh 30.00 in1015.9 mb 0.00 in0.0 mm 0.00 in0.0 mm 1.22 in31.0 mm
09:24 AM 59.0°F15.0°C 58.7°F14.8°C 99% Calm Calm 6.0 mph9.7 kmh 30.00 in1015.9 mb 0.00 in0.0 mm 0.00 in0.0 mm 1.22 in31.0 mm
09:22 AM 58.9°F14.9°C 58.6°F14.8°C 99% 2.0 mph E3.2 kmh E 7.0 mph11.3 kmh 30.00 in1015.9 mb 0.00 in0.0 mm 0.00 in0.0 mm 1.22 in31.0 mm
09:20 AM 58.8°F14.9°C 58.5°F14.7°C 99% Calm Calm 7.0 mph11.3 kmh 30.00 in1015.9 mb 0.00 in0.0 mm 0.00 in0.0 mm 1.22 in31.0 mm
09:18 AM 58.8°F14.9°C 58.5°F14.7°C 99% 1.0 mph ENE1.6 kmh ENE 4.0 mph6.4 kmh 30.00 in1015.9 mb 0.00 in0.0 mm 0.00 in0.0 mm 1.22 in31.0 mm
09:16 AM 58.7°F14.8°C 58.4°F14.7°C 99% 5.0 mph E8.0 kmh E 7.0 mph11.3 kmh 30.00 in1015.9 mb 0.00 in0.0 mm 0.00 in0.0 mm 1.22 in31.0 mm
09:14 AM 58.7°F14.8°C 58.4°F14.7°C 99% Calm Calm 2.0 mph3.2 kmh 30.00 in1015.9 mb 0.00 in0.0 mm 0.00 in0.0 mm 1.22 in31.0 mm
09:12 AM 58.6°F14.8°C 58.3°F14.6°C 99% 2.0 mph SE3.2 kmh SE 5.0 mph8.0 kmh 30.00 in1015.9 mb 0.00 in0.0 mm 0.00 in0.0 mm 1.22 in31.0 mm
09:10 AM 58.6°F14.8°C 58.3°F14.6°C 99% Calm Calm 5.0 mph8.0 kmh 30.00 in1015.9 mb 0.00 in0.0 mm 0.00 in0.0 mm 1.22 in31.0 mm
09:08 AM 58.6°F14.8°C 58.3°F14.6°C 99% Calm Calm 1.0 mph1.6 kmh 30.00 in1015.9 mb 0.00 in0.0 mm 0.00 in0.0 mm 1.22 in31.0 mm
09:06 AM 58.5°F14.7°C 58.2°F14.6°C 99% 2.0 mph ENE3.2 kmh ENE 6.0 mph9.7 kmh 30.00 in1015.9 mb 0.00 in0.0 mm 0.00 in0.0 mm 1.22 in31.0 mm
09:04 AM 58.5°F14.7°C 58.2°F14.6°C 99% Calm Calm 5.0 mph8.0 kmh 30.00 in1015.9 mb 0.00 in0.0 mm 0.00 in0.0 mm 1.22 in31.0 mm
09:02 AM 58.6°F14.8°C 58.3°F14.6°C 99% 3.0 mph SE4.8 kmh SE 4.0 mph6.4 kmh 30.00 in1015.9 mb 0.00 in0.0 mm 0.00 in0.0 mm 1.22 in31.0 mm
09:00 AM 58.5°F14.7°C 58.2°F14.6°C 99% 1.0 mph SE1.6 kmh SE 3.0 mph4.8 kmh 30.00 in1015.9 mb 0.00 in0.0 mm 0.00 in0.0 mm 1.22 in31.0 mm
08:58 AM 58.5°F14.7°C 58.2°F14.6°C 99% 2.0 mph NE3.2 kmh NE 2.0 mph3.2 kmh 30.00 in1015.9 mb 0.00 in0.0 mm 0.00 in0.0 mm 1.22 in31.0 mm
08:56 AM 58.4°F14.7°C 58.1°F14.5°C 99% Calm Calm 3.0 mph4.8 kmh 30.00 in1015.9 mb 0.00 in0.0 mm 0.00 in0.0 mm 1.22 in31.0 mm
08:54 AM 58.4°F14.7°C 58.1°F14.5°C 99% Calm Calm 3.0 mph4.8 kmh 30.00 in1015.9 mb 0.00 in0.0 mm 0.00 in0.0 mm 1.22 in31.0 mm
08:52 AM 58.3°F14.6°C 58.0°F14.4°C 99% 1.0 mph ENE1.6 kmh ENE 8.0 mph12.9 kmh 30.00 in1015.9 mb 0.00 in0.0 mm 0.00 in0.0 mm 1.22 in31.0 mm
08:50 AM 58.3°F14.6°C 58.0°F14.4°C 99% Calm Calm 8.0 mph12.9 kmh 30.00 in1015.9 mb 0.00 in0.0 mm 0.00 in0.0 mm 1.22 in31.0 mm
08:48 AM 58.2°F14.6°C 57.9°F14.4°C 99% 4.0 mph E6.4 kmh E 8.0 mph12.9 kmh 30.00 in1015.9 mb 0.00 in0.0 mm 0.00 in0.0 mm 1.22 in31.0 mm
08:46 AM 58.2°F14.6°C 57.9°F14.4°C 99% 2.0 mph E3.2 kmh E 5.0 mph8.0 kmh 30.00 in1015.9 mb 0.00 in0.0 mm 0.00 in0.0 mm 1.22 in31.0 mm
08:44 AM 58.2°F14.6°C 57.9°F14.4°C 99% Calm Calm -- 30.00 in1015.9 mb 0.00 in0.0 mm 0.00 in0.0 mm 1.22 in31.0 mm
08:42 AM 58.1°F14.5°C 57.8°F14.3°C 99% Calm Calm 6.0 mph9.7 kmh 30.00 in1015.9 mb 0.00 in0.0 mm 0.00 in0.0 mm 1.22 in31.0 mm
08:40 AM 58.1°F14.5°C 57.8°F14.3°C 99% Calm Calm 6.0 mph9.7 kmh 30.00 in1015.9 mb 0.00 in0.0 mm 0.00 in0.0 mm 1.22 in31.0 mm
08:38 AM 58.0°F14.4°C 57.7°F14.3°C 99% 2.0 mph ENE3.2 kmh ENE 2.0 mph3.2 kmh 30.00 in1015.9 mb 0.00 in0.0 mm 0.00 in0.0 mm 1.22 in31.0 mm
08:36 AM 58.0°F14.4°C 57.7°F14.3°C 99% 2.0 mph ENE3.2 kmh ENE 4.0 mph6.4 kmh 30.00 in1015.9 mb 0.00 in0.0 mm 0.00 in0.0 mm 1.22 in31.0 mm
08:34 AM 58.0°F14.4°C 57.7°F14.3°C 99% 2.0 mph N3.2 kmh N 4.0 mph6.4 kmh 30.00 in1015.9 mb 0.00 in0.0 mm 0.00 in0.0 mm 1.22 in31.0 mm
08:32 AM 57.9°F14.4°C 57.6°F14.2°C 99% 8.0 mph NE12.9 kmh NE 8.0 mph12.9 kmh 30.00 in1015.9 mb 0.01 in0.3 mm 0.00 in0.0 mm 1.22 in31.0 mm
08:30 AM 57.9°F14.4°C 57.6°F14.2°C 99% 1.0 mph E1.6 kmh E 4.0 mph6.4 kmh 30.00 in1015.9 mb 0.01 in0.3 mm 0.00 in0.0 mm 1.22 in31.0 mm
08:28 AM 57.9°F14.4°C 57.6°F14.2°C 99% 1.0 mph E1.6 kmh E 4.0 mph6.4 kmh 30.00 in1015.9 mb 0.01 in0.3 mm 0.00 in0.0 mm 1.22 in31.0 mm
08:26 AM 57.8°F14.3°C 57.5°F14.2°C 99% 1.0 mph E1.6 kmh E 5.0 mph8.0 kmh 30.00 in1015.9 mb 0.01 in0.3 mm 0.00 in0.0 mm 1.22 in31.0 mm
08:24 AM 57.8°F14.3°C 57.5°F14.2°C 99% Calm Calm 4.0 mph6.4 kmh 30.00 in1015.9 mb 0.01 in0.3 mm 0.00 in0.0 mm 1.22 in31.0 mm
08:22 AM 57.7°F14.3°C 57.4°F14.1°C 99% Calm Calm 3.0 mph4.8 kmh 30.00 in1015.9 mb 0.01 in0.3 mm 0.00 in0.0 mm 1.22 in31.0 mm
08:20 AM 57.7°F14.3°C 57.4°F14.1°C 99% Calm Calm 1.0 mph1.6 kmh 30.00 in1015.9 mb 0.01 in0.3 mm 0.00 in0.0 mm 1.22 in31.0 mm
08:18 AM 57.6°F14.2°C 57.3°F14.1°C 99% Calm Calm -- 30.00 in1015.9 mb 0.01 in0.3 mm 0.00 in0.0 mm 1.22 in31.0 mm
08:16 AM 57.6°F14.2°C 57.3°F14.1°C 99% 3.0 mph ENE4.8 kmh ENE 5.0 mph8.0 kmh 30.00 in1015.9 mb 0.01 in0.3 mm 0.00 in0.0 mm 1.22 in31.0 mm
08:14 AM 57.4°F14.1°C 57.1°F13.9°C 99% 1.0 mph E1.6 kmh E 2.0 mph3.2 kmh 30.00 in1015.9 mb 0.01 in0.3 mm 0.00 in0.0 mm 1.22 in31.0 mm
08:12 AM 57.4°F14.1°C 57.1°F13.9°C 99% 1.0 mph E1.6 kmh E 6.0 mph9.7 kmh 30.00 in1015.9 mb 0.02 in0.5 mm 0.00 in0.0 mm 1.22 in31.0 mm
08:10 AM 57.4°F14.1°C 57.1°F13.9°C 99% 4.0 mph ENE6.4 kmh ENE 6.0 mph9.7 kmh 30.00 in1015.9 mb 0.02 in0.5 mm 0.00 in0.0 mm 1.22 in31.0 mm
08:08 AM 57.3°F14.1°C 57.0°F13.9°C 99% Calm Calm 1.0 mph1.6 kmh 30.00 in1015.9 mb 0.02 in0.5 mm 0.00 in0.0 mm 1.22 in31.0 mm
08:06 AM 57.2°F14.0°C 56.9°F13.8°C 99% Calm Calm 2.0 mph3.2 kmh 30.00 in1015.9 mb 0.02 in0.5 mm 0.00 in0.0 mm 1.22 in31.0 mm
08:04 AM 57.1°F13.9°C 56.8°F13.8°C 99% 1.0 mph E1.6 kmh E 1.0 mph1.6 kmh 30.00 in1015.9 mb 0.02 in0.5 mm 0.00 in0.0 mm 1.22 in31.0 mm
08:02 AM 57.1°F13.9°C 56.8°F13.8°C 99% 1.0 mph E1.6 kmh E 5.0 mph8.0 kmh 30.00 in1015.9 mb 0.04 in1.0 mm 0.00 in0.0 mm 1.22 in31.0 mm
08:00 AM 57.0°F13.9°C 56.7°F13.7°C 99% 2.0 mph NE3.2 kmh NE 2.0 mph3.2 kmh 30.00 in1015.9 mb 0.04 in1.0 mm 0.00 in0.0 mm 1.22 in31.0 mm
07:58 AM 57.0°F13.9°C 56.7°F13.7°C 99% Calm Calm 1.0 mph1.6 kmh 30.00 in1015.9 mb 0.04 in1.0 mm 0.00 in0.0 mm 1.22 in31.0 mm
07:56 AM 56.9°F13.8°C 56.6°F13.7°C 99% 1.0 mph SE1.6 kmh SE 1.0 mph1.6 kmh 30.00 in1015.9 mb 0.06 in1.5 mm 0.00 in0.0 mm 1.22 in31.0 mm
07:54 AM 56.8°F13.8°C 56.5°F13.6°C 99% Calm Calm 1.0 mph1.6 kmh 30.00 in1015.9 mb 0.06 in1.5 mm 0.00 in0.0 mm 1.22 in31.0 mm
07:52 AM 56.8°F13.8°C 56.5°F13.6°C 99% 1.0 mph ESE1.6 kmh ESE 4.0 mph6.4 kmh 30.00 in1015.9 mb 0.07 in1.8 mm 0.00 in0.0 mm 1.22 in31.0 mm
07:50 AM 56.7°F13.7°C 56.4°F13.6°C 99% Calm Calm 3.0 mph4.8 kmh 30.00 in1015.9 mb 0.07 in1.8 mm 0.00 in0.0 mm 1.22 in31.0 mm
07:48 AM 56.7°F13.7°C 56.4°F13.6°C 99% Calm Calm -- 30.00 in1015.9 mb 0.07 in1.8 mm 0.00 in0.0 mm 1.22 in31.0 mm
07:46 AM 56.7°F13.7°C 56.4°F13.6°C 99% Calm Calm 2.0 mph3.2 kmh 30.00 in1015.9 mb 0.09 in2.3 mm 0.00 in0.0 mm 1.22 in31.0 mm
07:44 AM 56.6°F13.7°C 56.3°F13.5°C 99% Calm Calm 2.0 mph3.2 kmh 30.00 in1015.9 mb 0.09 in2.3 mm 0.00 in0.0 mm 1.22 in31.0 mm
07:42 AM 56.5°F13.6°C 56.2°F13.4°C 99% Calm Calm -- 30.00 in1015.9 mb 0.10 in2.5 mm 0.00 in0.0 mm 1.22 in31.0 mm
07:40 AM 56.5°F13.6°C 56.2°F13.4°C 99% Calm Calm -- 30.00 in1015.9 mb 0.10 in2.5 mm 0.00 in0.0 mm 1.22 in31.0 mm
07:38 AM 56.5°F13.6°C 56.2°F13.4°C 99% Calm Calm -- 30.00 in1015.9 mb 0.10 in2.5 mm 0.00 in0.0 mm 1.22 in31.0 mm
07:34 AM 56.5°F13.6°C 56.2°F13.4°C 99% Calm Calm 1.0 mph1.6 kmh 30.00 in1015.9 mb 0.12 in3.0 mm 0.00 in0.0 mm 1.22 in31.0 mm
07:32 AM 56.4°F13.6°C 56.1°F13.4°C 99% Calm Calm 1.0 mph1.6 kmh 30.00 in1015.9 mb 0.14 in3.6 mm 0.00 in0.0 mm 1.22 in31.0 mm
07:30 AM 56.4°F13.6°C 56.1°F13.4°C 99% Calm Calm -- 30.00 in1015.9 mb 0.14 in3.6 mm 0.30 in7.6 mm 1.22 in31.0 mm
07:28 AM 56.4°F13.6°C 56.1°F13.4°C 99% Calm Calm -- 29.99 in1015.6 mb 0.13 in3.3 mm 0.00 in0.0 mm 1.21 in30.7 mm
07:26 AM 56.4°F13.6°C 56.1°F13.4°C 99% Calm Calm 1.0 mph1.6 kmh 29.99 in1015.6 mb 0.16 in4.1 mm 0.00 in0.0 mm 1.21 in30.7 mm
07:24 AM 56.3°F13.5°C 56.0°F13.3°C 99% Calm Calm -- 29.99 in1015.6 mb 0.16 in4.1 mm 0.00 in0.0 mm 1.21 in30.7 mm
07:22 AM 56.3°F13.5°C 56.0°F13.3°C 99% Calm Calm -- 29.99 in1015.6 mb 0.18 in4.6 mm 0.00 in0.0 mm 1.21 in30.7 mm
07:20 AM 56.3°F13.5°C 56.0°F13.3°C 99% Calm Calm -- 29.99 in1015.6 mb 0.18 in4.6 mm 0.00 in0.0 mm 1.21 in30.7 mm
07:18 AM 56.3°F13.5°C 56.0°F13.3°C 99% Calm Calm -- 29.99 in1015.6 mb 0.18 in4.6 mm 0.00 in0.0 mm 1.21 in30.7 mm
07:16 AM 56.3°F13.5°C 56.0°F13.3°C 99% Calm Calm -- 29.99 in1015.6 mb 0.21 in5.3 mm 0.00 in0.0 mm 1.21 in30.7 mm
07:14 AM 56.3°F13.5°C 56.0°F13.3°C 99% Calm Calm -- 29.99 in1015.6 mb 0.21 in5.3 mm 0.00 in0.0 mm 1.21 in30.7 mm
07:12 AM 56.3°F13.5°C 56.0°F13.3°C 99% Calm Calm 1.0 mph1.6 kmh 29.98 in1015.2 mb 0.25 in6.4 mm 0.30 in7.6 mm 1.21 in30.7 mm
07:10 AM 56.3°F13.5°C 56.0°F13.3°C 99% Calm Calm 1.0 mph1.6 kmh 29.98 in1015.2 mb 0.24 in6.1 mm 0.00 in0.0 mm 1.20 in30.5 mm
07:08 AM 56.3°F13.5°C 56.0°F13.3°C 99% Calm Calm -- 29.98 in1015.2 mb 0.24 in6.1 mm 0.00 in0.0 mm 1.20 in30.5 mm
07:06 AM 56.2°F13.4°C 55.9°F13.3°C 99% Calm Calm -- 29.98 in1015.2 mb 0.29 in7.4 mm 0.00 in0.0 mm 1.20 in30.5 mm
07:04 AM 56.2°F13.4°C 55.9°F13.3°C 99% Calm Calm -- 29.98 in1015.2 mb 0.29 in7.4 mm 0.00 in0.0 mm 1.20 in30.5 mm
07:02 AM 56.2°F13.4°C 55.9°F13.3°C 99% Calm Calm -- 29.98 in1015.2 mb 0.31 in7.9 mm 0.00 in0.0 mm 1.20 in30.5 mm
07:00 AM 56.2°F13.4°C 55.9°F13.3°C 99% Calm Calm -- 29.98 in1015.2 mb 0.31 in7.9 mm 0.01 in0.3 mm 1.20 in30.5 mm
06:58 AM 56.2°F13.4°C 55.9°F13.3°C 99% Calm Calm -- 29.98 in1015.2 mb 0.30 in7.6 mm 0.00 in0.0 mm 1.19 in30.2 mm
06:56 AM 56.2°F13.4°C 55.9°F13.3°C 99% Calm Calm -- 29.98 in1015.2 mb 0.32 in8.1 mm 0.00 in0.0 mm 1.19 in30.2 mm
06:54 AM 56.2°F13.4°C 55.9°F13.3°C 99% Calm Calm -- 29.97 in1014.9 mb 0.32 in8.1 mm 0.00 in0.0 mm 1.19 in30.2 mm
06:52 AM 56.2°F13.4°C 55.9°F13.3°C 99% Calm Calm -- 29.97 in1014.9 mb 0.33 in8.4 mm 0.00 in0.0 mm 1.19 in30.2 mm
06:50 AM 56.2°F13.4°C 55.9°F13.3°C 99% Calm Calm -- 29.97 in1014.9 mb 0.33 in8.4 mm 0.30 in7.6 mm 1.19 in30.2 mm
06:48 AM 56.2°F13.4°C 55.9°F13.3°C 99% Calm Calm -- 29.97 in1014.9 mb 0.32 in8.1 mm 0.00 in0.0 mm 1.18 in30.0 mm
06:46 AM 56.2°F13.4°C 55.9°F13.3°C 99% Calm Calm -- 29.97 in1014.9 mb 0.35 in8.9 mm 0.00 in0.0 mm 1.18 in30.0 mm
06:44 AM 56.1°F13.4°C 55.8°F13.2°C 99% Calm Calm -- 29.97 in1014.9 mb 0.35 in8.9 mm 0.00 in0.0 mm 1.18 in30.0 mm
06:42 AM 56.1°F13.4°C 55.8°F13.2°C 99% Calm Calm -- 29.97 in1014.9 mb 0.35 in8.9 mm 0.00 in0.0 mm 1.18 in30.0 mm
06:40 AM 56.2°F13.4°C 55.9°F13.3°C 99% Calm Calm -- 29.97 in1014.9 mb 0.35 in8.9 mm 0.30 in7.6 mm 1.18 in30.0 mm
06:38 AM 56.1°F13.4°C 55.8°F13.2°C 99% Calm Calm -- 29.97 in1014.9 mb 0.34 in8.6 mm 0.00 in0.0 mm 1.17 in29.7 mm
06:36 AM 56.1°F13.4°C 55.8°F13.2°C 99% Calm Calm -- 29.97 in1014.9 mb 0.35 in8.9 mm 0.30 in7.6 mm 1.17 in29.7 mm
06:34 AM 56.1°F13.4°C 55.8°F13.2°C 99% Calm Calm -- 29.97 in1014.9 mb 0.34 in8.6 mm 0.30 in7.6 mm 1.16 in29.5 mm
06:32 AM 56.1°F13.4°C 55.8°F13.2°C 99% Calm Calm -- 29.97 in1014.9 mb 0.33 in8.4 mm 0.30 in7.6 mm 1.15 in29.2 mm
06:30 AM 56.1°F13.4°C 55.8°F13.2°C 99% Calm Calm -- 29.97 in1014.9 mb 0.32 in8.1 mm 0.30 in7.6 mm 1.14 in29.0 mm
06:28 AM 56.1°F13.4°C 55.8°F13.2°C 99% Calm Calm -- 29.97 in1014.9 mb 0.31 in7.9 mm 0.30 in7.6 mm 1.13 in28.7 mm
06:26 AM 56.1°F13.4°C 55.8°F13.2°C 99% Calm Calm -- 29.97 in1014.9 mb 0.30 in7.6 mm 0.30 in7.6 mm 1.12 in28.4 mm
06:24 AM 56.1°F13.4°C 55.8°F13.2°C 99% Calm Calm -- 29.97 in1014.9 mb 0.29 in7.4 mm 0.00 in0.0 mm 1.11 in28.2 mm
06:22 AM 56.1°F13.4°C 55.8°F13.2°C 99% Calm Calm -- 29.96 in1014.6 mb 0.29 in7.4 mm 0.30 in7.6 mm 1.11 in28.2 mm
06:20 AM 56.1°F13.4°C 55.8°F13.2°C 99% Calm Calm -- 29.96 in1014.6 mb 0.28 in7.1 mm 0.30 in7.6 mm 1.10 in27.9 mm
06:18 AM 56.1°F13.4°C 55.8°F13.2°C 99% Calm Calm -- 29.96 in1014.6 mb 0.27 in6.9 mm 0.00 in0.0 mm 1.09 in27.7 mm
06:16 AM 56.1°F13.4°C 55.8°F13.2°C 99% Calm Calm -- 29.96 in1014.6 mb 0.27 in6.9 mm 0.30 in7.6 mm 1.09 in27.7 mm
06:14 AM 56.1°F13.4°C 55.8°F13.2°C 99% Calm Calm -- 29.96 in1014.6 mb 0.26 in6.6 mm 0.00 in0.0 mm 1.08 in27.4 mm
06:12 AM 56.1°F13.4°C 55.8°F13.2°C 99% Calm Calm -- 29.96 in1014.6 mb 0.26 in6.6 mm 0.30 in7.6 mm 1.08 in27.4 mm
06:10 AM 56.1°F13.4°C 55.8°F13.2°C 99% Calm Calm -- 29.96 in1014.6 mb 0.25 in6.4 mm 0.60 in15.2 mm 1.07 in27.2 mm
06:08 AM 56.1°F13.4°C 55.8°F13.2°C 99% Calm Calm -- 29.97 in1014.9 mb 0.23 in5.8 mm 0.30 in7.6 mm 1.05 in26.7 mm
06:06 AM 56.1°F13.4°C 55.8°F13.2°C 99% Calm Calm -- 29.97 in1014.9 mb 0.22 in5.6 mm 0.60 in15.2 mm 1.04 in26.4 mm
06:04 AM 56.1°F13.4°C 55.8°F13.2°C 99% Calm Calm -- 29.97 in1014.9 mb 0.20 in5.1 mm 0.60 in15.2 mm 1.02 in25.9 mm
06:02 AM 56.1°F13.4°C 55.8°F13.2°C 99% Calm Calm -- 29.97 in1014.9 mb 0.18 in4.6 mm 0.30 in7.6 mm 1.00 in25.4 mm
06:00 AM 56.1°F13.4°C 55.8°F13.2°C 99% Calm Calm -- 29.96 in1014.6 mb 0.17 in4.3 mm 0.02 in0.5 mm 0.99 in25.1 mm
05:58 AM 56.1°F13.4°C 55.8°F13.2°C 99% Calm Calm -- 29.97 in1014.9 mb 0.15 in3.8 mm 0.00 in0.0 mm 0.97 in24.6 mm
05:56 AM 56.1°F13.4°C 55.8°F13.2°C 99% Calm Calm -- 29.97 in1014.9 mb 0.15 in3.8 mm 0.30 in7.6 mm 0.97 in24.6 mm
05:54 AM 56.1°F13.4°C 55.8°F13.2°C 99% Calm Calm -- 29.97 in1014.9 mb 0.14 in3.6 mm 0.00 in0.0 mm 0.96 in24.4 mm
05:52 AM 56.1°F13.4°C 55.8°F13.2°C 99% Calm Calm 3.0 mph4.8 kmh 29.96 in1014.6 mb 0.15 in3.8 mm 0.30 in7.6 mm 0.96 in24.4 mm
05:50 AM 56.1°F13.4°C 55.8°F13.2°C 99% Calm Calm 1.0 mph1.6 kmh 29.96 in1014.6 mb 0.14 in3.6 mm 0.30 in7.6 mm 0.95 in24.1 mm
05:48 AM 56.1°F13.4°C 55.8°F13.2°C 99% Calm Calm -- 29.97 in1014.9 mb 0.13 in3.3 mm 0.00 in0.0 mm 0.94 in23.9 mm
05:46 AM 56.1°F13.4°C 55.8°F13.2°C 99% Calm Calm 4.0 mph6.4 kmh 29.97 in1014.9 mb 0.13 in3.3 mm 0.60 in15.2 mm 0.94 in23.9 mm
05:44 AM 56.1°F13.4°C 55.8°F13.2°C 99% Calm Calm 4.0 mph6.4 kmh 29.97 in1014.9 mb 0.11 in2.8 mm 0.00 in0.0 mm 0.92 in23.4 mm
05:42 AM 56.1°F13.4°C 55.8°F13.2°C 99% 2.0 mph W3.2 kmh W 5.0 mph8.0 kmh 29.97 in1014.9 mb 0.11 in2.8 mm 0.30 in7.6 mm 0.92 in23.4 mm
05:40 AM 56.0°F13.3°C 55.7°F13.2°C 99% 2.0 mph SW3.2 kmh SW 5.0 mph8.0 kmh 29.97 in1014.9 mb 0.10 in2.5 mm 0.00 in0.0 mm 0.91 in23.1 mm
05:38 AM 56.0°F13.3°C 55.7°F13.2°C 99% 2.0 mph SSW3.2 kmh SSW 3.0 mph4.8 kmh 29.96 in1014.6 mb 0.10 in2.5 mm 0.00 in0.0 mm 0.91 in23.1 mm
05:36 AM 56.0°F13.3°C 55.7°F13.2°C 99% 2.0 mph SW3.2 kmh SW 5.0 mph8.0 kmh 29.95 in1014.2 mb 0.10 in2.5 mm 0.00 in0.0 mm 0.91 in23.1 mm
05:34 AM 56.0°F13.3°C 55.7°F13.2°C 99% Calm Calm -- 29.95 in1014.2 mb 0.10 in2.5 mm 0.00 in0.0 mm 0.91 in23.1 mm
05:32 AM 56.1°F13.4°C 55.8°F13.2°C 99% Calm Calm 4.0 mph6.4 kmh 29.95 in1014.2 mb 0.10 in2.5 mm 0.00 in0.0 mm 0.91 in23.1 mm
05:30 AM 56.0°F13.3°C 55.7°F13.2°C 99% Calm Calm 4.0 mph6.4 kmh 29.95 in1014.2 mb 0.10 in2.5 mm 0.00 in0.0 mm 0.91 in23.1 mm
05:28 AM 56.0°F13.3°C 55.7°F13.2°C 99% 3.0 mph SE4.8 kmh SE 4.0 mph6.4 kmh 29.94 in1013.9 mb 0.10 in2.5 mm 0.00 in0.0 mm 0.91 in23.1 mm
05:26 AM 56.0°F13.3°C 55.7°F13.2°C 99% Calm Calm 3.0 mph4.8 kmh 29.94 in1013.9 mb 0.11 in2.8 mm 0.00 in0.0 mm 0.91 in23.1 mm
05:24 AM 56.0°F13.3°C 55.7°F13.2°C 99% 1.0 mph NW1.6 kmh NW 2.0 mph3.2 kmh 29.94 in1013.9 mb 0.11 in2.8 mm 0.00 in0.0 mm 0.91 in23.1 mm
05:22 AM 56.0°F13.3°C 55.7°F13.2°C 99% Calm Calm 6.0 mph9.7 kmh 29.94 in1013.9 mb 0.11 in2.8 mm 0.00 in0.0 mm 0.91 in23.1 mm
05:20 AM 56.0°F13.3°C 55.7°F13.2°C 99% Calm Calm 6.0 mph9.7 kmh 29.94 in1013.9 mb 0.11 in2.8 mm 0.30 in7.6 mm 0.91 in23.1 mm
05:18 AM 56.0°F13.3°C 55.7°F13.2°C 99% 2.0 mph E3.2 kmh E 6.0 mph9.7 kmh 29.94 in1013.9 mb 0.10 in2.5 mm 0.00 in0.0 mm 0.90 in22.9 mm
05:16 AM 56.0°F13.3°C 55.7°F13.2°C 99% 4.0 mph NE6.4 kmh NE 8.0 mph12.9 kmh 29.94 in1013.9 mb 0.10 in2.5 mm 0.00 in0.0 mm 0.90 in22.9 mm
05:14 AM 56.0°F13.3°C 55.7°F13.2°C 99% 1.0 mph NW1.6 kmh NW 8.0 mph12.9 kmh 29.94 in1013.9 mb 0.10 in2.5 mm 0.00 in0.0 mm 0.90 in22.9 mm
05:12 AM 56.0°F13.3°C 55.7°F13.2°C 99% 2.0 mph ENE3.2 kmh ENE 9.0 mph14.5 kmh 29.94 in1013.9 mb 0.10 in2.5 mm 0.30 in7.6 mm 0.90 in22.9 mm
05:10 AM 56.0°F13.3°C 55.7°F13.2°C 99% 4.0 mph ESE6.4 kmh ESE 6.0 mph9.7 kmh 29.94 in1013.9 mb 0.09 in2.3 mm 0.00 in0.0 mm 0.89 in22.6 mm
05:08 AM 56.0°F13.3°C 55.7°F13.2°C 99% 2.0 mph ESE3.2 kmh ESE 6.0 mph9.7 kmh 29.94 in1013.9 mb 0.09 in2.3 mm 0.00 in0.0 mm 0.89 in22.6 mm
05:06 AM 56.0°F13.3°C 55.7°F13.2°C 99% 3.0 mph ENE4.8 kmh ENE 10.0 mph16.1 kmh 29.94 in1013.9 mb 0.10 in2.5 mm 0.30 in7.6 mm 0.89 in22.6 mm
05:04 AM 56.0°F13.3°C 55.7°F13.2°C 99% 3.0 mph E4.8 kmh E 10.0 mph16.1 kmh 29.94 in1013.9 mb 0.09 in2.3 mm 0.00 in0.0 mm 0.88 in22.4 mm
05:02 AM 56.0°F13.3°C 55.7°F13.2°C 99% 3.0 mph SSW4.8 kmh SSW 8.0 mph12.9 kmh 29.94 in1013.9 mb 0.10 in2.5 mm 0.00 in0.0 mm 0.88 in22.4 mm
05:00 AM 56.0°F13.3°C 55.7°F13.2°C 99% 2.0 mph E3.2 kmh E 8.0 mph12.9 kmh 29.94 in1013.9 mb 0.10 in2.5 mm 0.00 in0.0 mm 0.88 in22.4 mm
04:58 AM 56.0°F13.3°C 55.7°F13.2°C 99% 8.0 mph ENE12.9 kmh ENE 8.0 mph12.9 kmh 29.94 in1013.9 mb 0.10 in2.5 mm 0.00 in0.0 mm 0.88 in22.4 mm
04:56 AM 56.0°F13.3°C 55.7°F13.2°C 99% 1.0 mph SE1.6 kmh SE 10.0 mph16.1 kmh 29.94 in1013.9 mb 0.11 in2.8 mm 0.00 in0.0 mm 0.88 in22.4 mm
04:54 AM 56.0°F13.3°C 55.7°F13.2°C 99% 4.0 mph SE6.4 kmh SE 10.0 mph16.1 kmh 29.94 in1013.9 mb 0.11 in2.8 mm 0.00 in0.0 mm 0.88 in22.4 mm
04:52 AM 55.9°F13.3°C 55.6°F13.1°C 99% 5.0 mph ENE8.0 kmh ENE 10.0 mph16.1 kmh 29.94 in1013.9 mb 0.11 in2.8 mm 0.30 in7.6 mm 0.88 in22.4 mm
04:50 AM 56.0°F13.3°C 55.7°F13.2°C 99% 2.0 mph ESE3.2 kmh ESE 10.0 mph16.1 kmh 29.94 in1013.9 mb 0.10 in2.5 mm 0.00 in0.0 mm 0.87 in22.1 mm
04:48 AM 55.9°F13.3°C 55.6°F13.1°C 99% 3.0 mph WSW4.8 kmh WSW 8.0 mph12.9 kmh 29.94 in1013.9 mb 0.10 in2.5 mm 0.00 in0.0 mm 0.87 in22.1 mm
04:46 AM 55.9°F13.3°C 55.6°F13.1°C 99% 3.0 mph S4.8 kmh S 7.0 mph11.3 kmh 29.94 in1013.9 mb 0.11 in2.8 mm 0.30 in7.6 mm 0.87 in22.1 mm
04:44 AM 55.9°F13.3°C 55.6°F13.1°C 99% 2.0 mph E3.2 kmh E 7.0 mph11.3 kmh 29.94 in1013.9 mb 0.10 in2.5 mm 0.00 in0.0 mm 0.86 in21.8 mm
04:42 AM 55.9°F13.3°C 55.6°F13.1°C 99% Calm Calm 13.0 mph20.9 kmh 29.94 in1013.9 mb 0.17 in4.3 mm 0.00 in0.0 mm 0.86 in21.8 mm
04:40 AM 55.9°F13.3°C 55.6°F13.1°C 99% 2.0 mph NNW3.2 kmh NNW 13.0 mph20.9 kmh 29.94 in1013.9 mb 0.17 in4.3 mm 0.30 in7.6 mm 0.86 in21.8 mm
04:38 AM 55.9°F13.3°C 55.6°F13.1°C 99% 6.0 mph E9.7 kmh E 6.0 mph9.7 kmh 29.94 in1013.9 mb 0.16 in4.1 mm 0.00 in0.0 mm 0.85 in21.6 mm
04:36 AM 55.9°F13.3°C 55.6°F13.1°C 99% 2.0 mph SSE3.2 kmh SSE 5.0 mph8.0 kmh 29.94 in1013.9 mb 0.19 in4.8 mm 0.00 in0.0 mm 0.85 in21.6 mm
04:34 AM 55.9°F13.3°C 55.6°F13.1°C 99% 1.0 mph ESE1.6 kmh ESE 4.0 mph6.4 kmh 29.94 in1013.9 mb 0.19 in4.8 mm 0.00 in0.0 mm 0.85 in21.6 mm
04:32 AM 55.9°F13.3°C 55.6°F13.1°C 99% 1.0 mph E1.6 kmh E 11.0 mph17.7 kmh 29.94 in1013.9 mb 0.20 in5.1 mm 0.00 in0.0 mm 0.85 in21.6 mm
04:30 AM 55.9°F13.3°C 55.6°F13.1°C 99% 1.0 mph E1.6 kmh E 11.0 mph17.7 kmh 29.94 in1013.9 mb 0.20 in5.1 mm 0.00 in0.0 mm 0.85 in21.6 mm
04:28 AM 55.9°F13.3°C 55.6°F13.1°C 99% 3.0 mph N4.8 kmh N 5.0 mph8.0 kmh 29.94 in1013.9 mb 0.20 in5.1 mm 0.00 in0.0 mm 0.85 in21.6 mm
04:26 AM 55.9°F13.3°C 55.6°F13.1°C 99% 2.0 mph NNE3.2 kmh NNE 8.0 mph12.9 kmh 29.94 in1013.9 mb 0.20 in5.1 mm 0.00 in0.0 mm 0.85 in21.6 mm
04:24 AM 55.9°F13.3°C 55.6°F13.1°C 99% Calm Calm 5.0 mph8.0 kmh 29.94 in1013.9 mb 0.20 in5.1 mm 0.00 in0.0 mm 0.85 in21.6 mm
04:22 AM 55.9°F13.3°C 55.6°F13.1°C 99% Calm Calm 11.0 mph17.7 kmh 29.94 in1013.9 mb 0.22 in5.6 mm 0.00 in0.0 mm 0.85 in21.6 mm
04:20 AM 55.9°F13.3°C 55.6°F13.1°C 99% 6.0 mph ENE9.7 kmh ENE 11.0 mph17.7 kmh 29.93 in1013.5 mb 0.22 in5.6 mm 0.00 in0.0 mm 0.85 in21.6 mm
04:18 AM 55.9°F13.3°C 55.6°F13.1°C 99% 11.0 mph E17.7 kmh E 11.0 mph17.7 kmh 29.93 in1013.5 mb 0.22 in5.6 mm 0.00 in0.0 mm 0.85 in21.6 mm
04:16 AM 55.9°F13.3°C 55.6°F13.1°C 99% 4.0 mph NE6.4 kmh NE 9.0 mph14.5 kmh 29.94 in1013.9 mb 0.24 in6.1 mm 0.00 in0.0 mm 0.85 in21.6 mm
04:14 AM 55.9°F13.3°C 55.6°F13.1°C 99% 2.0 mph NE3.2 kmh NE 4.0 mph6.4 kmh 29.94 in1013.9 mb 0.24 in6.1 mm 0.00 in0.0 mm 0.85 in21.6 mm
04:12 AM 55.9°F13.3°C 55.6°F13.1°C 99% 1.0 mph NE1.6 kmh NE 9.0 mph14.5 kmh 29.94 in1013.9 mb 0.27 in6.9 mm 0.00 in0.0 mm 0.85 in21.6 mm
04:10 AM 55.9°F13.3°C 55.6°F13.1°C 99% 3.0 mph SSW4.8 kmh SSW 9.0 mph14.5 kmh 29.94 in1013.9 mb 0.27 in6.9 mm 0.30 in7.6 mm 0.85 in21.6 mm
04:08 AM 55.9°F13.3°C 55.6°F13.1°C 99% 6.0 mph E9.7 kmh E 6.0 mph9.7 kmh 29.95 in1014.2 mb 0.26 in6.6 mm 0.00 in0.0 mm 0.84 in21.3 mm
04:06 AM 55.9°F13.3°C 55.6°F13.1°C 99% 3.0 mph E4.8 kmh E 5.0 mph8.0 kmh 29.95 in1014.2 mb 0.28 in7.1 mm 0.00 in0.0 mm 0.84 in21.3 mm
04:04 AM 55.9°F13.3°C 55.6°F13.1°C 99% Calm Calm 4.0 mph6.4 kmh 29.96 in1014.6 mb 0.28 in7.1 mm 0.00 in0.0 mm 0.84 in21.3 mm
04:02 AM 55.9°F13.3°C 55.6°F13.1°C 99% 2.0 mph NNE3.2 kmh NNE 9.0 mph14.5 kmh 29.95 in1014.2 mb 0.29 in7.4 mm 0.00 in0.0 mm 0.84 in21.3 mm
04:00 AM 55.9°F13.3°C 55.6°F13.1°C 99% 2.0 mph SSE3.2 kmh SSE 9.0 mph14.5 kmh 29.95 in1014.2 mb 0.29 in7.4 mm 0.01 in0.3 mm 0.84 in21.3 mm
03:58 AM 55.9°F13.3°C 55.6°F13.1°C 99% 6.0 mph ENE9.7 kmh ENE 6.0 mph9.7 kmh 29.96 in1014.6 mb 0.28 in7.1 mm 0.00 in0.0 mm 0.83 in21.1 mm
03:56 AM 55.9°F13.3°C 55.6°F13.1°C 99% 2.0 mph SSE3.2 kmh SSE 8.0 mph12.9 kmh 29.96 in1014.6 mb 0.32 in8.1 mm 0.00 in0.0 mm 0.83 in21.1 mm
03:54 AM 55.9°F13.3°C 55.6°F13.1°C 99% 6.0 mph SW9.7 kmh SW 8.0 mph12.9 kmh 29.97 in1014.9 mb 0.32 in8.1 mm 0.00 in0.0 mm 0.83 in21.1 mm
03:52 AM 55.9°F13.3°C 55.6°F13.1°C 99% 7.0 mph E11.3 kmh E 7.0 mph11.3 kmh 29.96 in1014.6 mb 0.33 in8.4 mm 0.00 in0.0 mm 0.83 in21.1 mm
03:51 AM 55.9°F13.3°C 55.6°F13.1°C 99% Calm Calm 6.0 mph9.7 kmh 29.97 in1014.9 mb 0.33 in8.4 mm 0.20 in5.1 mm 0.83 in21.1 mm
03:48 AM 55.8°F13.2°C 55.5°F13.1°C 99% 2.0 mph ESE3.2 kmh ESE 2.0 mph3.2 kmh 29.96 in1014.6 mb 0.32 in8.1 mm 0.00 in0.0 mm 0.82 in20.8 mm
03:46 AM 55.8°F13.2°C 55.5°F13.1°C 99% 4.0 mph ESE6.4 kmh ESE 8.0 mph12.9 kmh 29.96 in1014.6 mb 0.34 in8.6 mm 0.30 in7.6 mm 0.82 in20.8 mm
03:44 AM 55.8°F13.2°C 55.5°F13.1°C 99% 3.0 mph E4.8 kmh E 6.0 mph9.7 kmh 29.96 in1014.6 mb 0.33 in8.4 mm 0.00 in0.0 mm 0.81 in20.6 mm
03:42 AM 55.8°F13.2°C 55.5°F13.1°C 99% Calm Calm 5.0 mph8.0 kmh 29.96 in1014.6 mb 0.34 in8.6 mm 0.60 in15.2 mm 0.81 in20.6 mm
03:40 AM 55.8°F13.2°C 55.5°F13.1°C 99% 2.0 mph SE3.2 kmh SE 5.0 mph8.0 kmh 29.96 in1014.6 mb 0.32 in8.1 mm 1.20 in30.5 mm 0.79 in20.1 mm
03:38 AM 55.8°F13.2°C 55.5°F13.1°C 99% Calm Calm 3.0 mph4.8 kmh 29.96 in1014.6 mb 0.28 in7.1 mm 0.00 in0.0 mm 0.75 in19.1 mm
03:36 AM 55.9°F13.3°C 55.6°F13.1°C 99% Calm Calm 7.0 mph11.3 kmh 29.97 in1014.9 mb 0.29 in7.4 mm 0.60 in15.2 mm 0.75 in19.1 mm
03:34 AM 55.9°F13.3°C 55.6°F13.1°C 99% 2.0 mph E3.2 kmh E 7.0 mph11.3 kmh 29.96 in1014.6 mb 0.27 in6.9 mm 0.00 in0.0 mm 0.73 in18.5 mm
03:32 AM 55.9°F13.3°C 55.6°F13.1°C 99% 1.0 mph SW1.6 kmh SW 6.0 mph9.7 kmh 29.96 in1014.6 mb 0.31 in7.9 mm 0.00 in0.0 mm 0.73 in18.5 mm
03:30 AM 55.9°F13.3°C 55.6°F13.1°C 99% 2.0 mph SE3.2 kmh SE 6.0 mph9.7 kmh 29.96 in1014.6 mb 0.31 in7.9 mm 0.30 in7.6 mm 0.73 in18.5 mm
03:28 AM 55.9°F13.3°C 55.6°F13.1°C 99% 6.0 mph E9.7 kmh E 6.0 mph9.7 kmh 29.95 in1014.2 mb 0.30 in7.6 mm 0.00 in0.0 mm 0.72 in18.3 mm
03:26 AM 55.9°F13.3°C 55.6°F13.1°C 99% 1.0 mph SSE1.6 kmh SSE 10.0 mph16.1 kmh 29.95 in1014.2 mb 0.35 in8.9 mm 0.00 in0.0 mm 0.72 in18.3 mm
03:24 AM 55.9°F13.3°C 55.6°F13.1°C 99% 1.0 mph SE1.6 kmh SE 8.0 mph12.9 kmh 29.96 in1014.6 mb 0.35 in8.9 mm 0.00 in0.0 mm 0.72 in18.3 mm
03:22 AM 55.9°F13.3°C 55.6°F13.1°C 99% 3.0 mph SE4.8 kmh SE 10.0 mph16.1 kmh 29.96 in1014.6 mb 0.37 in9.4 mm 0.30 in7.6 mm 0.72 in18.3 mm
03:20 AM 55.9°F13.3°C 55.6°F13.1°C 99% 3.0 mph SE4.8 kmh SE 10.0 mph16.1 kmh 29.96 in1014.6 mb 0.36 in9.1 mm 0.00 in0.0 mm 0.71 in18.0 mm
03:18 AM 55.9°F13.3°C 55.6°F13.1°C 99% 1.0 mph E1.6 kmh E 4.0 mph6.4 kmh 29.96 in1014.6 mb 0.36 in9.1 mm 0.00 in0.0 mm 0.71 in18.0 mm
03:16 AM 55.9°F13.3°C 55.6°F13.1°C 99% 1.0 mph ESE1.6 kmh ESE 11.0 mph17.7 kmh 29.96 in1014.6 mb 0.37 in9.4 mm 0.30 in7.6 mm 0.71 in18.0 mm
03:14 AM 55.9°F13.3°C 55.6°F13.1°C 99% 6.0 mph N9.7 kmh N 7.0 mph11.3 kmh 29.96 in1014.6 mb 0.36 in9.1 mm 0.00 in0.0 mm 0.70 in17.8 mm
03:12 AM 55.9°F13.3°C 55.6°F13.1°C 99% 1.0 mph E1.6 kmh E 11.0 mph17.7 kmh 29.97 in1014.9 mb 0.38 in9.7 mm 0.30 in7.6 mm 0.70 in17.8 mm
03:10 AM 56.0°F13.3°C 55.7°F13.2°C 99% 7.0 mph E11.3 kmh E 11.0 mph17.7 kmh 29.96 in1014.6 mb 0.37 in9.4 mm 0.60 in15.2 mm 0.69 in17.5 mm
03:08 AM 56.0°F13.3°C 55.7°F13.2°C 99% 8.0 mph ENE12.9 kmh ENE 8.0 mph12.9 kmh 29.97 in1014.9 mb 0.35 in8.9 mm 0.00 in0.0 mm 0.67 in17.0 mm
03:06 AM 56.0°F13.3°C 55.7°F13.2°C 99% 5.0 mph SE8.0 kmh SE 5.0 mph8.0 kmh 29.97 in1014.9 mb 0.38 in9.7 mm 0.30 in7.6 mm 0.67 in17.0 mm
03:04 AM 56.0°F13.3°C 55.7°F13.2°C 99% 4.0 mph NE6.4 kmh NE 5.0 mph8.0 kmh 29.97 in1014.9 mb 0.37 in9.4 mm 0.00 in0.0 mm 0.66 in16.8 mm
03:02 AM 56.0°F13.3°C 55.7°F13.2°C 99% 2.0 mph NNW3.2 kmh NNW 14.0 mph22.5 kmh 29.97 in1014.9 mb 0.40 in10.2 mm 0.30 in7.6 mm 0.66 in16.8 mm
03:00 AM 56.0°F13.3°C 55.7°F13.2°C 99% 4.0 mph E6.4 kmh E 12.0 mph19.3 kmh 29.98 in1015.2 mb 0.39 in9.9 mm 0.01 in0.3 mm 0.65 in16.5 mm
02:58 AM 56.0°F13.3°C 55.7°F13.2°C 99% 7.0 mph ENE11.3 kmh ENE 8.0 mph12.9 kmh 29.98 in1015.2 mb 0.38 in9.7 mm 0.00 in0.0 mm 0.64 in16.3 mm
02:56 AM 56.0°F13.3°C 55.7°F13.2°C 99% 7.0 mph NE11.3 kmh NE 11.0 mph17.7 kmh 29.98 in1015.2 mb 0.40 in10.2 mm 0.60 in15.2 mm 0.64 in16.3 mm
02:54 AM 56.1°F13.4°C 55.8°F13.2°C 99% 3.0 mph S4.8 kmh S 11.0 mph17.7 kmh 29.98 in1015.2 mb 0.38 in9.7 mm 0.00 in0.0 mm 0.62 in15.7 mm
02:52 AM 56.1°F13.4°C 55.8°F13.2°C 99% 5.0 mph NW8.0 kmh NW 9.0 mph14.5 kmh 29.97 in1014.9 mb 0.40 in10.2 mm 0.30 in7.6 mm 0.62 in15.7 mm
02:50 AM 56.1°F13.4°C 55.8°F13.2°C 99% Calm Calm 8.0 mph12.9 kmh 29.97 in1014.9 mb 0.39 in9.9 mm 0.30 in7.6 mm 0.61 in15.5 mm
02:48 AM 56.1°F13.4°C 55.8°F13.2°C 99% 5.0 mph ESE8.0 kmh ESE 7.0 mph11.3 kmh 29.97 in1014.9 mb 0.38 in9.7 mm 0.00 in0.0 mm 0.60 in15.2 mm
02:46 AM 56.1°F13.4°C 55.8°F13.2°C 99% 4.0 mph ESE6.4 kmh ESE 9.0 mph14.5 kmh 29.98 in1015.2 mb 0.39 in9.9 mm 0.00 in0.0 mm 0.60 in15.2 mm
02:44 AM 56.1°F13.4°C 55.8°F13.2°C 99% 1.0 mph E1.6 kmh E 4.0 mph6.4 kmh 29.98 in1015.2 mb 0.39 in9.9 mm 0.00 in0.0 mm 0.60 in15.2 mm
02:42 AM 56.1°F13.4°C 55.8°F13.2°C 99% 4.0 mph SE6.4 kmh SE 7.0 mph11.3 kmh 29.98 in1015.2 mb 0.39 in9.9 mm 0.60 in15.2 mm 0.60 in15.2 mm
02:40 AM 56.2°F13.4°C 55.9°F13.3°C 99% 1.0 mph ENE1.6 kmh ENE 7.0 mph11.3 kmh 29.98 in1015.2 mb 0.37 in9.4 mm 0.00 in0.0 mm 0.58 in14.7 mm
02:38 AM 56.1°F13.4°C 55.6°F13.1°C 98% 5.0 mph E8.0 kmh E 7.0 mph11.3 kmh 29.99 in1015.6 mb 0.37 in9.4 mm 0.00 in0.0 mm 0.58 in14.7 mm
02:36 AM 56.2°F13.4°C 55.7°F13.2°C 98% 3.0 mph SSW4.8 kmh SSW 9.0 mph14.5 kmh 29.99 in1015.6 mb 0.38 in9.7 mm 0.60 in15.2 mm 0.58 in14.7 mm
02:34 AM 56.1°F13.4°C 55.6°F13.1°C 98% 1.0 mph SE1.6 kmh SE 8.0 mph12.9 kmh 29.98 in1015.2 mb 0.36 in9.1 mm 0.30 in7.6 mm 0.56 in14.2 mm
02:32 AM 56.2°F13.4°C 55.7°F13.2°C 98% 3.0 mph ESE4.8 kmh ESE 5.0 mph8.0 kmh 29.98 in1015.2 mb 0.35 in8.9 mm 0.30 in7.6 mm 0.55 in14.0 mm
02:30 AM 56.2°F13.4°C 55.7°F13.2°C 98% Calm Calm 5.0 mph8.0 kmh 29.98 in1015.2 mb 0.34 in8.6 mm 0.90 in22.9 mm 0.54 in13.7 mm
02:28 AM 56.2°F13.4°C 55.7°F13.2°C 98% 2.0 mph E3.2 kmh E 4.0 mph6.4 kmh 29.99 in1015.6 mb 0.31 in7.9 mm 0.60 in15.2 mm 0.51 in13.0 mm
02:26 AM 56.2°F13.4°C 55.7°F13.2°C 98% 6.0 mph ESE9.7 kmh ESE 12.0 mph19.3 kmh 29.99 in1015.6 mb 0.29 in7.4 mm 0.60 in15.2 mm 0.49 in12.4 mm
02:24 AM 56.2°F13.4°C 55.7°F13.2°C 98% 5.0 mph ENE8.0 kmh ENE 12.0 mph19.3 kmh 29.99 in1015.6 mb 0.27 in6.9 mm 0.30 in7.6 mm 0.47 in11.9 mm
02:22 AM 56.2°F13.4°C 55.7°F13.2°C 98% Calm Calm 12.0 mph19.3 kmh 29.99 in1015.6 mb 0.26 in6.6 mm 0.00 in0.0 mm 0.46 in11.7 mm
02:20 AM 56.2°F13.4°C 55.7°F13.2°C 98% 5.0 mph SE8.0 kmh SE 12.0 mph19.3 kmh 29.99 in1015.6 mb 0.26 in6.6 mm 0.60 in15.2 mm 0.46 in11.7 mm
02:18 AM 56.2°F13.4°C 55.7°F13.2°C 98% 4.0 mph NE6.4 kmh NE 11.0 mph17.7 kmh 29.99 in1015.6 mb 0.24 in6.1 mm 0.00 in0.0 mm 0.44 in11.2 mm
02:16 AM 56.2°F13.4°C 55.7°F13.2°C 98% 1.0 mph SW1.6 kmh SW 6.0 mph9.7 kmh 29.99 in1015.6 mb 0.24 in6.1 mm 0.30 in7.6 mm 0.44 in11.2 mm
02:14 AM 56.2°F13.4°C 55.7°F13.2°C 98% 1.0 mph SE1.6 kmh SE 5.0 mph8.0 kmh 29.98 in1015.2 mb 0.23 in5.8 mm 0.00 in0.0 mm 0.43 in10.9 mm
02:12 AM 56.2°F13.4°C 55.7°F13.2°C 98% 4.0 mph SE6.4 kmh SE 13.0 mph20.9 kmh 29.99 in1015.6 mb 0.24 in6.1 mm 0.00 in0.0 mm 0.43 in10.9 mm
02:10 AM 56.2°F13.4°C 55.7°F13.2°C 98% 10.0 mph SE16.1 kmh SE 13.0 mph20.9 kmh 29.99 in1015.6 mb 0.24 in6.1 mm 0.60 in15.2 mm 0.43 in10.9 mm
02:08 AM 56.2°F13.4°C 55.7°F13.2°C 98% 5.0 mph E8.0 kmh E 7.0 mph11.3 kmh 29.99 in1015.6 mb 0.22 in5.6 mm 0.00 in0.0 mm 0.41 in10.4 mm
02:06 AM 56.2°F13.4°C 55.7°F13.2°C 98% 2.0 mph SE3.2 kmh SE 14.0 mph22.5 kmh 29.99 in1015.6 mb 0.22 in5.6 mm 0.30 in7.6 mm 0.41 in10.4 mm
02:04 AM 56.2°F13.4°C 55.7°F13.2°C 98% 1.0 mph ESE1.6 kmh ESE 5.0 mph8.0 kmh 29.99 in1015.6 mb 0.21 in5.3 mm 0.00 in0.0 mm 0.40 in10.2 mm
02:02 AM 56.2°F13.4°C 55.7°F13.2°C 98% 2.0 mph WSW3.2 kmh WSW 7.0 mph11.3 kmh 29.99 in1015.6 mb 0.21 in5.3 mm 0.30 in7.6 mm 0.40 in10.2 mm
02:00 AM 56.3°F13.5°C 55.8°F13.2°C 98% 7.0 mph ENE11.3 kmh ENE 7.0 mph11.3 kmh 29.99 in1015.6 mb 0.20 in5.1 mm 0.01 in0.3 mm 0.39 in9.9 mm
01:58 AM 56.2°F13.4°C 55.7°F13.2°C 98% 4.0 mph ESE6.4 kmh ESE 4.0 mph6.4 kmh 29.99 in1015.6 mb 0.19 in4.8 mm 0.00 in0.0 mm 0.38 in9.7 mm
01:56 AM 56.3°F13.5°C 55.8°F13.2°C 98% 7.0 mph E11.3 kmh E 12.0 mph19.3 kmh 30.00 in1015.9 mb 0.19 in4.8 mm 0.30 in7.6 mm 0.38 in9.7 mm
01:54 AM 56.3°F13.5°C 55.8°F13.2°C 98% 1.0 mph E1.6 kmh E 6.0 mph9.7 kmh 30.00 in1015.9 mb 0.18 in4.6 mm 0.00 in0.0 mm 0.37 in9.4 mm
01:52 AM 56.3°F13.5°C 55.8°F13.2°C 98% 4.0 mph SE6.4 kmh SE 10.0 mph16.1 kmh 29.99 in1015.6 mb 0.19 in4.8 mm 0.30 in7.6 mm 0.37 in9.4 mm
01:50 AM 56.3°F13.5°C 55.8°F13.2°C 98% 3.0 mph NE4.8 kmh NE 8.0 mph12.9 kmh 29.99 in1015.6 mb 0.18 in4.6 mm 0.30 in7.6 mm 0.36 in9.1 mm
01:48 AM 56.3°F13.5°C 55.8°F13.2°C 98% 4.0 mph SE6.4 kmh SE 6.0 mph9.7 kmh 30.00 in1015.9 mb 0.17 in4.3 mm 0.00 in0.0 mm 0.35 in8.9 mm
01:46 AM 56.3°F13.5°C 55.8°F13.2°C 98% 3.0 mph S4.8 kmh S 9.0 mph14.5 kmh 30.00 in1015.9 mb 0.18 in4.6 mm 0.30 in7.6 mm 0.35 in8.9 mm
01:44 AM 56.3°F13.5°C 55.8°F13.2°C 98% 2.0 mph SE3.2 kmh SE 9.0 mph14.5 kmh 30.00 in1015.9 mb 0.17 in4.3 mm 0.00 in0.0 mm 0.34 in8.6 mm
01:42 AM 56.3°F13.5°C 55.8°F13.2°C 98% 2.0 mph SE3.2 kmh SE 16.0 mph25.7 kmh 30.00 in1015.9 mb 0.19 in4.8 mm 0.30 in7.6 mm 0.34 in8.6 mm
01:40 AM 56.3°F13.5°C 55.8°F13.2°C 98% 8.0 mph E12.9 kmh E 16.0 mph25.7 kmh 30.00 in1015.9 mb 0.18 in4.6 mm 0.00 in0.0 mm 0.33 in8.4 mm
01:38 AM 56.4°F13.6°C 55.9°F13.3°C 98% 5.0 mph ENE8.0 kmh ENE 8.0 mph12.9 kmh 30.00 in1015.9 mb 0.18 in4.6 mm 0.00 in0.0 mm 0.33 in8.4 mm
01:36 AM 56.4°F13.6°C 55.9°F13.3°C 98% 2.0 mph SE3.2 kmh SE 8.0 mph12.9 kmh 30.00 in1015.9 mb 0.20 in5.1 mm 0.00 in0.0 mm 0.33 in8.4 mm
01:34 AM 56.4°F13.6°C 55.9°F13.3°C 98% 2.0 mph SE3.2 kmh SE 8.0 mph12.9 kmh 30.00 in1015.9 mb 0.20 in5.1 mm 0.00 in0.0 mm 0.33 in8.4 mm
01:32 AM 56.4°F13.6°C 55.9°F13.3°C 98% 4.0 mph E6.4 kmh E 10.0 mph16.1 kmh 30.00 in1015.9 mb 0.20 in5.1 mm 0.00 in0.0 mm 0.33 in8.4 mm
01:30 AM 56.4°F13.6°C 55.9°F13.3°C 98% 5.0 mph NNE8.0 kmh NNE 10.0 mph16.1 kmh 30.00 in1015.9 mb 0.20 in5.1 mm 0.00 in0.0 mm 0.33 in8.4 mm
01:28 AM 56.4°F13.6°C 55.9°F13.3°C 98% 8.0 mph ESE12.9 kmh ESE 10.0 mph16.1 kmh 30.01 in1016.3 mb 0.20 in5.1 mm 0.00 in0.0 mm 0.33 in8.4 mm
01:26 AM 56.4°F13.6°C 55.9°F13.3°C 98% 2.0 mph SE3.2 kmh SE 8.0 mph12.9 kmh 30.00 in1015.9 mb 0.23 in5.8 mm 0.00 in0.0 mm 0.33 in8.4 mm
01:24 AM 56.4°F13.6°C 55.9°F13.3°C 98% 4.0 mph SW6.4 kmh SW 8.0 mph12.9 kmh 30.01 in1016.3 mb 0.23 in5.8 mm 0.00 in0.0 mm 0.33 in8.4 mm
01:22 AM 56.4°F13.6°C 55.9°F13.3°C 98% 3.0 mph SE4.8 kmh SE 7.0 mph11.3 kmh 30.00 in1015.9 mb 0.25 in6.4 mm 0.00 in0.0 mm 0.33 in8.4 mm
01:20 AM 56.5°F13.6°C 55.9°F13.3°C 98% 3.0 mph S4.8 kmh S 7.0 mph11.3 kmh 30.01 in1016.3 mb 0.25 in6.4 mm 0.30 in7.6 mm 0.33 in8.4 mm
01:18 AM 56.5°F13.6°C 55.9°F13.3°C 98% 3.0 mph ESE4.8 kmh ESE 7.0 mph11.3 kmh 30.00 in1015.9 mb 0.24 in6.1 mm 0.00 in0.0 mm 0.32 in8.1 mm
01:16 AM 56.5°F13.6°C 55.9°F13.3°C 98% 4.0 mph ENE6.4 kmh ENE 9.0 mph14.5 kmh 30.00 in1015.9 mb 0.25 in6.4 mm 0.30 in7.6 mm 0.32 in8.1 mm
01:14 AM 56.5°F13.6°C 55.9°F13.3°C 98% 3.0 mph ENE4.8 kmh ENE 8.0 mph12.9 kmh 30.01 in1016.3 mb 0.24 in6.1 mm 0.00 in0.0 mm 0.31 in7.9 mm
01:12 AM 56.5°F13.6°C 55.9°F13.3°C 98% 7.0 mph SE11.3 kmh SE 7.0 mph11.3 kmh 30.01 in1016.3 mb 0.27 in6.9 mm 0.30 in7.6 mm 0.31 in7.9 mm
01:10 AM 56.5°F13.6°C 55.9°F13.3°C 98% Calm Calm 5.0 mph8.0 kmh 30.01 in1016.3 mb 0.26 in6.6 mm 0.30 in7.6 mm 0.30 in7.6 mm
01:08 AM 56.6°F13.7°C 56.0°F13.3°C 98% 2.0 mph E3.2 kmh E 3.0 mph4.8 kmh 30.01 in1016.3 mb 0.25 in6.4 mm 0.00 in0.0 mm 0.29 in7.4 mm
01:06 AM 56.6°F13.7°C 56.0°F13.3°C 98% 3.0 mph SE4.8 kmh SE 11.0 mph17.7 kmh 30.01 in1016.3 mb 0.29 in7.4 mm 0.30 in7.6 mm 0.29 in7.4 mm
01:04 AM 56.6°F13.7°C 56.0°F13.3°C 98% 5.0 mph E8.0 kmh E 11.0 mph17.7 kmh 30.01 in1016.3 mb 0.28 in7.1 mm 0.00 in0.0 mm 0.28 in7.1 mm
01:02 AM 56.6°F13.7°C 56.0°F13.3°C 98% 3.0 mph SE4.8 kmh SE 23.0 mph37.0 kmh 30.01 in1016.3 mb 0.28 in7.1 mm 0.30 in7.6 mm 0.28 in7.1 mm
01:00 AM 56.7°F13.7°C 56.1°F13.4°C 98% 3.0 mph SE4.8 kmh SE 23.0 mph37.0 kmh 30.01 in1016.3 mb 0.27 in6.9 mm 0.01 in0.3 mm 0.27 in6.9 mm
12:58 AM 56.7°F13.7°C 56.1°F13.4°C 98% 3.0 mph SW4.8 kmh SW 5.0 mph8.0 kmh 30.01 in1016.3 mb 0.26 in6.6 mm 0.30 in7.6 mm 0.26 in6.6 mm
12:56 AM 56.7°F13.7°C 56.1°F13.4°C 98% 4.0 mph E6.4 kmh E 14.0 mph22.5 kmh 30.01 in1016.3 mb 0.25 in6.4 mm 0.00 in0.0 mm 0.25 in6.4 mm
12:54 AM 56.7°F13.7°C 56.1°F13.4°C 98% 2.0 mph E3.2 kmh E 6.0 mph9.7 kmh 30.01 in1016.3 mb 0.25 in6.4 mm 0.00 in0.0 mm 0.25 in6.4 mm
12:52 AM 56.7°F13.7°C 56.1°F13.4°C 98% 3.0 mph ESE4.8 kmh ESE 14.0 mph22.5 kmh 30.01 in1016.3 mb 0.25 in6.4 mm 0.00 in0.0 mm 0.25 in6.4 mm
12:50 AM 56.7°F13.7°C 56.1°F13.4°C 98% 2.0 mph E3.2 kmh E 14.0 mph22.5 kmh 30.02 in1016.6 mb 0.25 in6.4 mm 0.30 in7.6 mm 0.25 in6.4 mm
12:48 AM 56.8°F13.8°C 56.2°F13.4°C 98% 3.0 mph SE4.8 kmh SE 7.0 mph11.3 kmh 30.02 in1016.6 mb 0.24 in6.1 mm 0.30 in7.6 mm 0.24 in6.1 mm
12:46 AM 56.8°F13.8°C 56.2°F13.4°C 98% Calm Calm 14.0 mph22.5 kmh 30.02 in1016.6 mb 0.23 in5.8 mm 0.30 in7.6 mm 0.23 in5.8 mm
12:44 AM 56.8°F13.8°C 56.2°F13.4°C 98% 3.0 mph E4.8 kmh E 14.0 mph22.5 kmh 30.02 in1016.6 mb 0.22 in5.6 mm 0.00 in0.0 mm 0.22 in5.6 mm
12:42 AM 56.8°F13.8°C 56.2°F13.4°C 98% 3.0 mph SE4.8 kmh SE 15.0 mph24.1 kmh 30.02 in1016.6 mb 0.22 in5.6 mm 0.30 in7.6 mm 0.22 in5.6 mm
12:40 AM 56.9°F13.8°C 56.3°F13.5°C 98% 3.0 mph E4.8 kmh E 15.0 mph24.1 kmh 30.02 in1016.6 mb 0.21 in5.3 mm 0.60 in15.2 mm 0.21 in5.3 mm
12:38 AM 56.9°F13.8°C 56.3°F13.5°C 98% 8.0 mph ESE12.9 kmh ESE 9.0 mph14.5 kmh 30.03 in1016.9 mb 0.19 in4.8 mm 0.30 in7.6 mm 0.19 in4.8 mm
12:36 AM 56.9°F13.8°C 56.3°F13.5°C 98% 4.0 mph NNW6.4 kmh NNW 12.0 mph19.3 kmh 30.03 in1016.9 mb 0.18 in4.6 mm 0.30 in7.6 mm 0.18 in4.6 mm
12:34 AM 56.9°F13.8°C 56.3°F13.5°C 98% 2.0 mph SE3.2 kmh SE 12.0 mph19.3 kmh 30.03 in1016.9 mb 0.17 in4.3 mm 0.00 in0.0 mm 0.17 in4.3 mm
12:32 AM 56.9°F13.8°C 56.3°F13.5°C 98% 6.0 mph SE9.7 kmh SE 11.0 mph17.7 kmh 30.03 in1016.9 mb 0.17 in4.3 mm 0.30 in7.6 mm 0.17 in4.3 mm
12:30 AM 56.9°F13.8°C 56.3°F13.5°C 98% 3.0 mph SE4.8 kmh SE 10.0 mph16.1 kmh 30.02 in1016.6 mb 0.16 in4.1 mm 0.00 in0.0 mm 0.16 in4.1 mm
12:28 AM 56.9°F13.8°C 56.3°F13.5°C 98% 3.0 mph SE4.8 kmh SE 8.0 mph12.9 kmh 30.01 in1016.3 mb 0.16 in4.1 mm 0.30 in7.6 mm 0.16 in4.1 mm
12:26 AM 56.9°F13.8°C 56.3°F13.5°C 98% 4.0 mph SE6.4 kmh SE 13.0 mph20.9 kmh 30.00 in1015.9 mb 0.15 in3.8 mm 0.30 in7.6 mm 0.15 in3.8 mm
12:24 AM 57.0°F13.9°C 56.4°F13.6°C 98% 2.0 mph S3.2 kmh S 13.0 mph20.9 kmh 30.00 in1015.9 mb 0.14 in3.6 mm 0.30 in7.6 mm 0.14 in3.6 mm
12:22 AM 57.0°F13.9°C 56.4°F13.6°C 98% 3.0 mph SSE4.8 kmh SSE 20.0 mph32.2 kmh 30.00 in1015.9 mb 0.13 in3.3 mm 0.30 in7.6 mm 0.13 in3.3 mm
12:20 AM 57.0°F13.9°C 56.4°F13.6°C 98% 13.0 mph E20.9 kmh E 20.0 mph32.2 kmh 30.00 in1015.9 mb 0.12 in3.0 mm 0.60 in15.2 mm 0.12 in3.0 mm
12:18 AM 57.0°F13.9°C 56.4°F13.6°C 98% 3.0 mph ENE4.8 kmh ENE 6.0 mph9.7 kmh 30.00 in1015.9 mb 0.10 in2.5 mm 0.00 in0.0 mm 0.10 in2.5 mm
12:16 AM 57.1°F13.9°C 56.5°F13.6°C 98% 5.0 mph NE8.0 kmh NE 13.0 mph20.9 kmh 30.00 in1015.9 mb 0.10 in2.5 mm 0.30 in7.6 mm 0.10 in2.5 mm
12:14 AM 57.1°F13.9°C 56.5°F13.6°C 98% 5.0 mph SE8.0 kmh SE 13.0 mph20.9 kmh 30.02 in1016.6 mb 0.09 in2.3 mm 0.30 in7.6 mm 0.09 in2.3 mm
12:12 AM 57.1°F13.9°C 56.5°F13.6°C 98% 4.0 mph ENE6.4 kmh ENE 15.0 mph24.1 kmh 30.02 in1016.6 mb 0.08 in2.0 mm 0.00 in0.0 mm 0.08 in2.0 mm
12:10 AM 57.1°F13.9°C 56.5°F13.6°C 98% 4.0 mph NE6.4 kmh NE 13.0 mph20.9 kmh 30.02 in1016.6 mb 0.08 in2.0 mm 0.60 in15.2 mm 0.08 in2.0 mm
12:08 AM 57.1°F13.9°C 56.5°F13.6°C 98% 3.0 mph SSE4.8 kmh SSE 8.0 mph12.9 kmh 30.02 in1016.6 mb 0.06 in1.5 mm 0.30 in7.6 mm 0.06 in1.5 mm
12:06 AM 57.2°F14.0°C 56.6°F13.7°C 98% 4.0 mph N6.4 kmh N 7.0 mph11.3 kmh 30.03 in1016.9 mb 0.05 in1.3 mm 0.30 in7.6 mm 0.05 in1.3 mm
12:04 AM 57.1°F13.9°C 56.5°F13.6°C 98% 5.0 mph E8.0 kmh E 7.0 mph11.3 kmh 30.03 in1016.9 mb 0.04 in1.0 mm 0.60 in15.2 mm 0.04 in1.0 mm
12:02 AM 57.1°F13.9°C 56.5°F13.6°C 98% 4.0 mph SSE6.4 kmh SSE 11.0 mph17.7 kmh 30.03 in1016.9 mb 0.02 in0.5 mm 0.00 in0.0 mm 0.02 in0.5 mm
12:00 AM 57.1°F13.9°C 56.5°F13.6°C 98% 1.0 mph WSW1.6 kmh WSW 9.0 mph14.5 kmh 30.03 in1016.9 mb 0.02 in0.5 mm 0.00 in0.0 mm 0.02 in0.5 mm